Provisional Data: Chiques Creek near Route 283


Please select a monitoring station.
Please select start date.
Please select start date.

Toggle Unit: C/F Toggle Unit: C/F
Sample Time Temperature (C) Temperature (F) Specific Conductivity (mS/cm) pH   Turbidity (NTU+) DO (mg/L)
11/9/2022 12:00:00 AM 11.95 53.51 0.505 8 2.96 9.53
11/9/2022 12:15:00 AM 11.92 53.456 0.505 7.97 3.93 9.41
11/9/2022 12:30:00 AM 11.9 53.42 0.498 7.98 3.39 9.22
11/9/2022 12:45:00 AM 11.87 53.366 0.506 8.06 2.94 9.45
11/9/2022 1:00:00 AM 11.85 53.33 0.527 8.09 3.13 9.56
11/9/2022 1:15:00 AM 11.82 53.276 0.506 8.06 3.18 9.56
11/9/2022 1:30:00 AM 11.8 53.24 0.506 8.07 3.16 9.47
11/9/2022 1:45:00 AM 11.78 53.204 0.507 8.03 2.9 9.45
11/9/2022 2:00:00 AM 11.77 53.186 0.5 8.05 3.22 9.54
11/9/2022 2:15:00 AM 11.76 53.168 0.507 8.01 3.19 9.58
11/9/2022 2:30:00 AM 11.74 53.132 0.528 8.03 3.04 9.62
11/9/2022 2:45:00 AM 11.71 53.078 0.507 8.05 3.23 9.55
11/9/2022 3:00:00 AM 11.7 53.06 0.508 8.06 3.19 9.69
11/9/2022 3:15:00 AM 11.7 53.06 0.5 8.06 3.29 9.57
11/9/2022 3:30:00 AM 11.68 53.024 0.495 8.06 3.15 9.82
11/9/2022 3:45:00 AM 11.65 52.97 0.508 8.07 3.07 9.85
11/9/2022 4:00:00 AM 11.64 52.952 0.508 8.08 3.13 9.83
11/9/2022 4:15:00 AM 11.63 52.934 0.501 8.07 2.91 9.69
11/9/2022 4:30:00 AM 11.61 52.898 0.501 8.07 3.2 9.74
11/9/2022 4:45:00 AM 11.58 52.844 0.529 8.07 3.29 9.81
11/9/2022 5:00:00 AM 11.55 52.79 0.502 8.09 3.12 9.87
11/9/2022 5:15:00 AM 11.51 52.718 0.509 8.07 3.02 9.85
11/9/2022 5:30:00 AM 11.47 52.646 0.508 8.04 3.33 9.8
11/9/2022 5:45:00 AM 11.43 52.574 0.529 8.04 3.01 9.8
11/9/2022 6:00:00 AM 11.39 52.502 0.502 8.08 3.09 9.76
11/9/2022 6:15:00 AM 11.35 52.43 0.51 8.08 3.49 9.76
11/9/2022 6:30:00 AM 11.31 52.358 0.51 8.08 3.14 9.76
11/9/2022 6:45:00 AM 11.26 52.268 0.531 8.07 3.22 9.77
11/9/2022 7:00:00 AM 11.21 52.178 0.498 8.08 3.13 9.79
11/9/2022 7:15:00 AM 11.17 52.106 0.511 8.07 3.15 9.65
11/9/2022 7:30:00 AM 11.13 52.034 0.504 8.1 3.13 9.8
11/9/2022 7:45:00 AM 11.09 51.962 0.505 8.09 3.44 9.74
11/9/2022 8:00:00 AM 11.06 51.908 0.513 8.13 3.12 9.77
11/9/2022 8:15:00 AM 11.04 51.872 0.506 8.08 3.3 9.83
11/9/2022 8:30:00 AM 11.03 51.854 0.514 8.08 3.52 9.91
11/9/2022 8:45:00 AM 11.01 51.818 0.507 8.07 3.21 9.89
11/9/2022 9:00:00 AM 11 51.8 0.502 8.02 3.04 9.9
11/9/2022 9:15:00 AM 11 51.8 0.509 8.09 3.29 9.93
11/9/2022 9:30:00 AM 10.99 51.782 0.516 8.1 3.57 10
11/9/2022 9:45:00 AM 11 51.8 0.51 8.1 3.48 10.03
11/9/2022 10:00:00 AM 10.99 51.782 0.511 8.1 3.17 10.03
11/9/2022 10:15:00 AM 10.99 51.782 0.506 8.08 3.28 10.01
11/9/2022 10:30:00 AM 11.01 51.818 0.521 8.08 3.18 9.99
11/9/2022 10:45:00 AM 11.03 51.854 0.521 8.07 2.95 10.01
11/9/2022 11:00:00 AM 11.03 51.854 0.523 8.06 3.24 9.94
11/9/2022 11:15:00 AM 11.03 51.854 0.524 8.08 3.08 9.89
11/9/2022 11:30:00 AM 11.05 51.89 0.517 8.06 6.69 10.03
11/9/2022 11:45:00 AM 11.05 51.89 0.526 8.08 3.67 10.01
11/9/2022 12:00:00 PM 11.05 51.89 0.513 8.09 2.82 9.97
11/9/2022 12:15:00 PM 11.05 51.89 0.52 8.09 2.91 10.01
11/9/2022 12:30:00 PM 11.05 51.89 0.521 8.06 3.76 10
11/9/2022 12:45:00 PM 11.03 51.854 0.53 8.07 2.7 9.97
11/9/2022 1:00:00 PM 11.04 51.872 0.523 8.06 2.73 9.93
11/9/2022 1:15:00 PM 11.03 51.854 0.523 8.05 2.98 9.94
11/9/2022 1:30:00 PM 11.01 51.818 0.525 8.05 3 9.94
11/9/2022 1:45:00 PM 10.97 51.746 0.526 8.04 2.7 9.89
11/9/2022 2:00:00 PM 10.96 51.728 0.534 8.04 2.63 9.89
11/9/2022 2:15:00 PM 10.93 51.674 0.521 8.04 2.73 9.91
11/9/2022 2:30:00 PM 10.9 51.62 0.527 8.04 2.76 9.87
11/9/2022 2:45:00 PM 10.88 51.584 0.536 8.02 2.57 9.85
11/9/2022 3:00:00 PM 10.89 51.602 0.536 8.05 2.68 9.81
11/9/2022 3:15:00 PM 10.88 51.584 0.529 8.04 2.58 9.81
11/9/2022 3:30:00 PM 10.85 51.53 0.537 8.02 2.58 9.76
11/9/2022 3:45:00 PM 10.82 51.476 0.537 7.99 2.57 9.71
11/9/2022 4:00:00 PM 10.79 51.422 0.537 8 2.83 9.74
11/9/2022 4:15:00 PM 10.76 51.368 0.524 8.01 2.53 9.66
11/9/2022 4:30:00 PM 10.72 51.296 0.537 8.04 2.97 9.71
11/9/2022 4:45:00 PM 10.69 51.242 0.53 8.01 3.51 9.69
11/9/2022 5:00:00 PM 10.67 51.206 0.53 8.02 2.69 9.74
11/9/2022 5:15:00 PM 10.64 51.152 0.539 8.01 2.53 9.73
11/9/2022 5:30:00 PM 10.62 51.116 0.531 8.03 2.95 9.74
11/9/2022 5:45:00 PM 10.6 51.08 0.538 8.02 2.79 9.78
11/9/2022 6:00:00 PM 10.58 51.044 0.525 8.06 2.85 9.72
11/9/2022 6:15:00 PM 10.56 51.008 0.538 8.06 2.78 9.74
11/9/2022 6:30:00 PM 10.55 50.99 0.527 8.05 2.83 9.76
11/9/2022 6:45:00 PM 10.53 50.954 0.537 8.09 2.93 9.79
11/9/2022 7:00:00 PM 10.51 50.918 0.53 8.06 3.03 9.82
11/9/2022 7:15:00 PM 10.5 50.9 0.537 8.09 2.68 9.84
11/9/2022 7:30:00 PM 10.48 50.864 0.53 8.06 2.79 9.85
11/9/2022 7:45:00 PM 10.45 50.81 0.537 8.01 2.65 9.87
11/9/2022 8:00:00 PM 10.43 50.774 0.53 8.01 2.92 9.88
11/9/2022 8:15:00 PM 10.4 50.72 0.537 8.02 2.65 9.85
11/9/2022 8:30:00 PM 10.36 50.648 0.53 8.01 2.8 9.85
11/9/2022 8:45:00 PM 10.33 50.594 0.522 8.01 2.6 9.88
11/9/2022 9:00:00 PM 10.28 50.504 0.529 8 3.05 9.87
11/9/2022 9:15:00 PM 10.22 50.396 0.529 8.03 2.96 9.89
11/9/2022 9:30:00 PM 10.16 50.288 0.529 8.03 3.31 9.92
11/9/2022 9:45:00 PM 10.1 50.18 0.536 8.02 2.79 9.91
11/9/2022 10:00:00 PM 10.03 50.054 0.536 8.05 2.83 9.93
11/9/2022 10:15:00 PM 9.97 49.946 0.536 8.02 2.68 10
11/9/2022 10:30:00 PM 9.91 49.838 0.528 8 2.71 10
11/9/2022 10:45:00 PM 9.86 49.748 0.528 8.02 2.79 10.04
11/9/2022 11:00:00 PM 9.82 49.676 0.528 8.03 2.68 10.09
11/9/2022 11:15:00 PM 9.78 49.604 0.528 8.01 2.59 10.12
11/9/2022 11:30:00 PM 9.76 49.568 0.536 8.05 2.81 10.15
11/9/2022 11:45:00 PM 9.73 49.514 0.528 8.03 2.7 10.19
11/10/2022 12:00:00 AM 9.71 49.478 0.536 8.04 2.66 10.2
11/10/2022 12:15:00 AM 9.69 49.442 0.529 8.04 2.42 10.24
11/10/2022 12:30:00 AM 9.67 49.406 0.558 8.05 2.59 10.25
11/10/2022 12:45:00 AM 9.65 49.37 0.529 7.91 2.66 10.26
11/10/2022 1:00:00 AM 9.63 49.334 0.537 7.93 2.83 10.25
11/10/2022 1:15:00 AM 9.62 49.316 0.529 7.94 2.9 10.29
11/10/2022 1:30:00 AM 9.6 49.28 0.557 8.06 2.8 10.31
11/10/2022 1:45:00 AM 9.6 49.28 0.523 8.05 2.43 10.32
11/10/2022 2:00:00 AM 9.59 49.262 0.557 8.03 2.6 10.34
11/10/2022 2:15:00 AM 9.59 49.262 0.529 8.07 2.57 10.35
11/10/2022 2:30:00 AM 9.59 49.262 0.523 8.09 2.85 10.37
11/10/2022 2:45:00 AM 9.59 49.262 0.536 8.09 2.64 10.38
11/10/2022 3:00:00 AM 9.6 49.28 0.537 8.1 2.52 10.42
11/10/2022 3:15:00 AM 9.61 49.298 0.523 8.09 2.51 10.44
11/10/2022 3:30:00 AM 9.61 49.298 0.537 8.12 2.87 10.45
11/10/2022 3:45:00 AM 9.63 49.334 0.537 8.11 2.8 10.49
11/10/2022 4:00:00 AM 9.64 49.352 0.536 8.13 2.83 10.5
11/10/2022 4:15:00 AM 9.64 49.352 0.557 8.14 2.71 10.52
11/10/2022 4:30:00 AM 9.66 49.388 0.537 8.15 3.03 10.55
11/10/2022 4:45:00 AM 9.66 49.388 0.558 8.15 2.77 10.56
11/10/2022 5:00:00 AM 9.68 49.424 0.529 8.17 3.11 10.58
11/10/2022 5:15:00 AM 9.68 49.424 0.529 8.16 2.57 10.58
11/10/2022 5:30:00 AM 9.67 49.406 0.529 8.17 2.74 10.57
11/10/2022 5:45:00 AM 9.68 49.424 0.559 8.17 2.85 10.55
11/10/2022 6:00:00 AM 9.68 49.424 0.536 8.23 3.07 10.57
11/10/2022 6:15:00 AM 9.68 49.424 0.537 8.23 2.83 10.58
11/10/2022 6:30:00 AM 9.67 49.406 0.523 8.26 2.89 10.55
11/10/2022 6:45:00 AM 9.65 49.37 0.535 8.22 3.04 10.55
11/10/2022 7:00:00 AM 9.64 49.352 0.536 8.29 3.18 10.53
11/10/2022 7:15:00 AM 9.62 49.316 0.522 8.23 2.79 10.51
11/10/2022 7:30:00 AM 9.61 49.298 0.556 8.19 2.91 10.53
11/10/2022 7:45:00 AM 9.59 49.262 0.535 8.2 3.64 10.52
11/10/2022 8:00:00 AM 9.59 49.262 0.521 8.15 3.5 10.57
11/10/2022 8:15:00 AM 9.59 49.262 0.534 8.15 3.02 10.61
11/10/2022 8:30:00 AM 9.59 49.262 0.534 8.16 3.31 10.62
11/10/2022 8:45:00 AM 9.61 49.298 0.527 8.18 3.01 10.62
11/10/2022 9:00:00 AM 9.63 49.334 0.556 8.16 3.3 10.67
11/10/2022 9:15:00 AM 9.67 49.406 0.555 8.19 3.13 10.7
11/10/2022 9:30:00 AM 9.69 49.442 0.534 8.16 3.2 10.69
11/10/2022 9:45:00 AM 9.73 49.514 0.526 8.16 3.47 10.71
11/10/2022 10:00:00 AM 9.76 49.568 0.534 8.16 3.16 10.72
11/10/2022 10:15:00 AM 9.78 49.604 0.533 8.17 3.37 10.7
11/10/2022 10:30:00 AM 9.81 49.658 0.526 8.16 3.28 10.69
11/10/2022 10:45:00 AM 9.83 49.694 0.534 8.17 3.24 10.68
11/10/2022 11:00:00 AM 9.86 49.748 0.526 8.19 3.15 10.65
11/10/2022 11:15:00 AM 9.9 49.82 0.534 8.16 3.27 10.65
11/10/2022 11:30:00 AM 9.96 49.928 0.527 8.15 3.01 10.64
11/10/2022 11:45:00 AM 9.98 49.964 0.557 8.15 3.05 10.6
11/10/2022 12:00:00 PM 10.03 50.054 0.528 8.1 2.93 10.58
11/10/2022 12:15:00 PM 10.06 50.108 0.535 8.16 3.01 10.54
11/10/2022 12:30:00 PM 10.09 50.162 0.529 8.16 2.92 10.54
11/10/2022 12:45:00 PM 10.07 50.126 0.558 8.16 4.28 10.51
11/10/2022 1:00:00 PM 10.07 50.126 0.538 8.15 3.21 10.48
11/10/2022 1:15:00 PM 10.07 50.126 0.531 8.18 3.19 10.46
11/10/2022 1:30:00 PM 10.11 50.198 0.526 8.18 3.02 10.44
11/10/2022 1:45:00 PM 10.16 50.288 0.54 8.2 3.9 10.42
11/10/2022 2:00:00 PM 10.22 50.396 0.533 8.15 2.74 10.4
11/10/2022 2:15:00 PM 10.23 50.414 0.541 8.16 2.6 10.36
11/10/2022 2:30:00 PM 10.23 50.414 0.534 8.21 2.51 10.32
11/10/2022 2:45:00 PM 10.24 50.432 0.535 8.2 2.66 10.29
11/10/2022 3:00:00 PM 10.25 50.45 0.536 8.21 2.56 10.28
11/10/2022 3:15:00 PM 10.26 50.468 0.545 8.21 2.47 10.25
11/10/2022 3:30:00 PM 10.25 50.45 0.538 8.2 2.58 10.21
11/10/2022 3:45:00 PM 10.23 50.414 0.546 8.24 2.38 10.2
11/10/2022 4:00:00 PM 10.22 50.396 0.533 8.24 2.41 10.19
11/10/2022 4:15:00 PM 10.2 50.36 0.569 8.22 2.21 10.14
11/10/2022 4:30:00 PM 10.18 50.324 0.541 8.17 2.52 10.15
11/10/2022 4:45:00 PM 10.17 50.306 0.54 8.18 3.08 10.1
11/10/2022 5:00:00 PM 10.15 50.27 0.541 8.17 2.34 10.09
11/10/2022 5:15:00 PM 10.13 50.234 0.55 8.16 2.78 10.09
11/10/2022 5:30:00 PM 10.12 50.216 0.537 8.16 2.46 10.07
11/10/2022 5:45:00 PM 10.12 50.216 0.537 8.14 2.46 10.05
11/10/2022 6:00:00 PM 10.12 50.216 0.55 8.13 2.43 10.05
11/10/2022 6:15:00 PM 10.12 50.216 0.551 8.14 2.99 10.06
11/10/2022 6:30:00 PM 10.12 50.216 0.571 8.1 2.41 10.06
11/10/2022 6:45:00 PM 10.11 50.198 0.551 8.13 2.45 10.06
11/10/2022 7:00:00 PM 10.11 50.198 0.551 8.11 2.84 10.05
11/10/2022 7:15:00 PM 10.11 50.198 0.544 8.11 2.5 10.06
11/10/2022 7:30:00 PM 10.12 50.216 0.574 8.1 2.51 10.05
11/10/2022 7:45:00 PM 10.12 50.216 0.551 8.09 3.14 10.07
11/10/2022 8:00:00 PM 10.12 50.216 0.551 8.1 3.06 10.08
11/10/2022 8:15:00 PM 10.13 50.234 0.543 8.11 2.43 10.05
11/10/2022 8:30:00 PM 10.13 50.234 0.541 8.09 2.59 10.05
11/10/2022 8:45:00 PM 10.13 50.234 0.544 8.11 2.58 10.04
11/10/2022 9:00:00 PM 10.14 50.252 0.552 8.08 2.44 10.03
11/10/2022 9:15:00 PM 10.12 50.216 0.544 8.12 2.82 10.04
11/10/2022 9:30:00 PM 10.11 50.198 0.544 8.11 2.52 10.03
11/10/2022 9:45:00 PM 10.1 50.18 0.55 8.1 2.51 10.02
11/10/2022 10:00:00 PM 10.08 50.144 0.543 8.11 2.38 10.01
11/10/2022 10:15:00 PM 10.07 50.126 0.551 8.1 2.48 9.99
11/10/2022 10:30:00 PM 10.05 50.09 0.542 8.14 2.6 10.01
11/10/2022 10:45:00 PM 10.03 50.054 0.549 8.15 2.74 10.05
11/10/2022 11:00:00 PM 10.02 50.036 0.541 8.11 2.74 10.07
11/10/2022 11:15:00 PM 10.02 50.036 0.549 8.11 2.65 10.08
11/10/2022 11:30:00 PM 10.02 50.036 0.57 8.12 2.87 10.08
11/10/2022 11:45:00 PM 10.02 50.036 0.547 8.1 2.52 10.11
11/11/2022 12:00:00 AM 10.02 50.036 0.547 8.1 2.92 10.14
11/11/2022 12:15:00 AM 10.02 50.036 0.54 8.11 2.69 10.13
11/11/2022 12:30:00 AM 10.04 50.072 0.568 8.09 2.61 10.14
11/11/2022 12:45:00 AM 10.05 50.09 0.546 8.13 2.53 10.15
11/11/2022 1:00:00 AM 10.07 50.126 0.567 8.12 2.6 10.18
11/11/2022 1:15:00 AM 10.1 50.18 0.567 8.11 2.42 10.21
11/11/2022 1:30:00 AM 10.13 50.234 0.545 8.12 2.57 10.24
11/11/2022 1:45:00 AM 10.18 50.324 0.544 8.13 2.57 10.28
11/11/2022 2:00:00 AM 10.23 50.414 0.543 8.17 2.81 10.3
11/11/2022 2:15:00 AM 10.27 50.486 0.535 8.19 2.3 10.32
11/11/2022 2:30:00 AM 10.32 50.576 0.535 8.22 2.59 10.36
11/11/2022 2:45:00 AM 10.36 50.648 0.543 8.23 2.4 10.38
11/11/2022 3:00:00 AM 10.39 50.702 0.542 8.21 2.57 10.39
11/11/2022 3:15:00 AM 10.43 50.774 0.542 8.2 2.31 10.41
11/11/2022 3:30:00 AM 10.47 50.846 0.534 8.22 2.52 10.44
11/11/2022 3:45:00 AM 10.51 50.918 0.528 8.18 2.61 10.44
11/11/2022 4:00:00 AM 10.56 51.008 0.542 8.19 2.38 10.47
11/11/2022 4:15:00 AM 10.6 51.08 0.541 8.16 2.42 10.46
11/11/2022 4:30:00 AM 10.64 51.152 0.541 8.16 2.51 10.45
11/11/2022 4:45:00 AM 10.68 51.224 0.541 8.15 2.55 10.46
11/11/2022 5:00:00 AM 10.72 51.296 0.528 8.14 2.62 10.44
11/11/2022 5:15:00 AM 10.77 51.386 0.533 8.14 2.59 10.44
11/11/2022 5:30:00 AM 10.8 51.44 0.533 8.15 2.76 10.37
11/11/2022 5:45:00 AM 10.84 51.512 0.534 8.16 2.6 10.33
11/11/2022 6:00:00 AM 10.88 51.584 0.541 8.18 2.85 10.34
11/11/2022 6:15:00 AM 10.91 51.638 0.562 8.19 2.69 10.34
11/11/2022 6:30:00 AM 10.95 51.71 0.528 8.19 2.6 10.31
11/11/2022 6:45:00 AM 10.97 51.746 0.528 8.18 2.69 10.28
11/11/2022 7:00:00 AM 11 51.8 0.534 8.2 3.01 10.28
11/11/2022 7:15:00 AM 11.04 51.872 0.541 8.18 2.88 10.26
11/11/2022 7:30:00 AM 11.06 51.908 0.534 8.18 3.85 10.23
11/11/2022 7:45:00 AM 11.09 51.962 0.541 8.2 3.99 10.19
11/11/2022 8:00:00 AM 11.12 52.016 0.541 8.16 2.77 10.18
11/11/2022 8:15:00 AM 11.14 52.052 0.528 8.18 2.9 10.16
11/11/2022 8:30:00 AM 11.17 52.106 0.54 8.17 2.76 10.17
11/11/2022 8:45:00 AM 11.19 52.142 0.527 8.21 2.44 10.16
11/11/2022 9:00:00 AM 11.22 52.196 0.561 8.18 2.68 10.17
11/11/2022 9:15:00 AM 11.25 52.25 0.532 8.16 2.79 10.13
11/11/2022 9:30:00 AM 11.27 52.286 0.539 8.18 2.76 10.11
11/11/2022 9:45:00 AM 11.29 52.322 0.531 8.21 2.66 10.08
11/11/2022 10:00:00 AM 11.32 52.376 0.529 8.22 2.63 10.08
11/11/2022 10:15:00 AM 11.34 52.412 0.531 8.23 2.7 10.06
11/11/2022 10:30:00 AM 11.37 52.466 0.53 8.21 2.68 9.99
11/11/2022 10:45:00 AM 11.41 52.538 0.53 8.22 2.45 10
11/11/2022 11:00:00 AM 11.45 52.61 0.527 8.17 2.72 9.99
11/11/2022 11:15:00 AM 11.48 52.664 0.529 8.16 2.5 9.95
11/11/2022 11:30:00 AM 11.51 52.718 0.526 8.14 2.44 9.92
11/11/2022 11:45:00 AM 11.55 52.79 0.535 8.15 2.95 9.87
11/11/2022 12:00:00 PM 11.58 52.844 0.529 8.13 2.59 9.84
11/11/2022 12:15:00 PM 11.62 52.916 0.529 8.12 2.51 9.75
11/11/2022 12:30:00 PM 11.68 53.024 0.528 8.14 2.67 9.72
11/11/2022 12:45:00 PM 11.76 53.168 0.527 8.13 2.68 9.68
11/11/2022 1:00:00 PM 11.86 53.348 0.524 8.13 2.42 9.68
11/11/2022 1:15:00 PM 11.93 53.474 0.531 8.11 2.64 9.68
11/11/2022 1:30:00 PM 12.02 53.636 0.545 8.1 3.03 9.6
11/11/2022 1:45:00 PM 12.06 53.708 0.527 8.12 2.37 9.56
11/11/2022 2:00:00 PM 12.07 53.726 0.522 8.1 2.63 9.58
11/11/2022 2:15:00 PM 12.06 53.708 0.525 8.11 2.75 9.6
11/11/2022 2:30:00 PM 12.07 53.726 0.521 8.15 2.3 9.59
11/11/2022 2:45:00 PM 12.07 53.726 0.529 8.07 2.68 9.48
11/11/2022 3:00:00 PM 12.08 53.744 0.558 8.07 2.37 9.48
11/11/2022 3:15:00 PM 12.13 53.834 0.528 8.05 2.52 9.48
11/11/2022 3:30:00 PM 12.13 53.834 0.559 8.06 2.56 9.42
11/11/2022 3:45:00 PM 12.16 53.888 0.533 8.1 2.52 9.44
11/11/2022 4:00:00 PM 12.16 53.888 0.532 8.06 2.37 9.42
11/11/2022 4:15:00 PM 12.19 53.942 0.534 8.1 2.84 9.35
11/11/2022 4:30:00 PM 12.2 53.96 0.541 8.16 2.76 9.33
11/11/2022 4:45:00 PM 12.23 54.014 0.535 8.13 2.35 9.26
11/11/2022 5:00:00 PM 12.25 54.05 0.543 8.1 2.57 9.24
11/11/2022 5:15:00 PM 12.28 54.104 0.534 8.1 2.47 9.21
11/11/2022 5:30:00 PM 12.31 54.158 0.537 8.13 2.32 9.24
11/11/2022 5:45:00 PM 12.36 54.248 0.536 8.12 2.68 9.22
11/11/2022 6:00:00 PM 12.39 54.302 0.539 8.13 2.49 9.2
11/11/2022 6:15:00 PM 12.45 54.41 0.541 8.09 2.39 9.14
11/11/2022 6:30:00 PM 12.48 54.464 0.542 8.06 2.57 9.13
11/11/2022 6:45:00 PM 12.51 54.518 0.536 8.01 4.95 9.07
11/11/2022 7:00:00 PM 12.55 54.59 0.543 8.06 6.51 9.12
11/11/2022 7:15:00 PM 12.58 54.644 0.542 8.06 3.95 9.11
11/11/2022 7:30:00 PM 12.58 54.644 0.541 7.98 2.61 9.07
11/11/2022 7:45:00 PM 12.61 54.698 0.541 7.99 2.76 9.05
11/11/2022 8:00:00 PM 12.63 54.734 0.544 7.97 2.81 9.05
11/11/2022 8:15:00 PM 12.65 54.77 0.542 7.92 2.57 9.05
11/11/2022 8:30:00 PM 12.67 54.806 0.552 7.93 2.8 9.16
11/11/2022 8:45:00 PM 12.66 54.788 0.545 7.94 4 9.31
11/11/2022 9:00:00 PM 12.64 54.752 0.552 7.95 4.97 9.35
11/11/2022 9:15:00 PM 12.64 54.752 0.545 7.95 6.95 9.34
11/11/2022 9:30:00 PM 12.65 54.77 0.544 7.94 11.31 9.42
11/11/2022 9:45:00 PM 12.71 54.878 0.539 7.94 13.16 9.43
11/11/2022 10:00:00 PM 12.81 55.058 0.544 7.94 13.21 9.48
11/11/2022 10:15:00 PM 12.91 55.238 0.543 7.95 5.76 9.46
11/11/2022 10:30:00 PM 13.02 55.436 0.54 7.99 17.19 9.45
11/11/2022 10:45:00 PM 13.12 55.616 0.542 8 11.09 9.42
11/11/2022 11:00:00 PM 13.22 55.796 0.536 8 10.79 9.44
11/11/2022 11:15:00 PM 13.35 56.03 0.541 7.93 7.29 9.44
11/11/2022 11:30:00 PM 13.48 56.264 0.536 7.92 7.13 9.39
11/11/2022 11:45:00 PM 13.61 56.498 0.534 7.94 9.5 9.45
11/12/2022 12:00:00 AM 13.72 56.696 0.526 7.94 9.45 9.42
11/12/2022 12:15:00 AM 13.8 56.84 0.525 7.93 11.5 9.33
11/12/2022 12:30:00 AM 13.87 56.966 0.519 7.91 4.63 9.27
11/12/2022 12:45:00 AM 13.94 57.092 0.513 7.93 7.04 9.29
11/12/2022 1:00:00 AM 14.03 57.254 0.308 7.92 10.39 9.28
11/12/2022 1:15:00 AM 14.11 57.398 0.511 7.88 7.3 9.25
11/12/2022 1:30:00 AM 14.21 57.578 0.512 7.88 58.77 9.22
11/12/2022 1:45:00 AM 14.31 57.758 0.511 7.88 7.81 9.2
11/12/2022 2:00:00 AM 14.39 57.902 0.509 7.88 7.31 9.18
11/12/2022 2:15:00 AM 14.46 58.028 0.511 7.91 6.23 9.17
11/12/2022 2:30:00 AM 14.53 58.154 0.516 7.9 8 9.17
11/12/2022 2:45:00 AM 14.59 58.262 0.513 7.89 5.78 9.15
11/12/2022 3:00:00 AM 14.63 58.334 0.513 7.89 7.03 9.15
11/12/2022 3:15:00 AM 14.65 58.37 0.515 7.9 7.16 9.16
11/12/2022 3:30:00 AM 14.66 58.388 0.515 7.9 6.15 9.16
11/12/2022 3:45:00 AM 14.66 58.388 0.52 7.9 5.99 9.16
11/12/2022 4:00:00 AM 14.66 58.388 0.513 7.93 5.93 9.17
11/12/2022 4:15:00 AM 14.65 58.37 0.511 7.92 8.38 9.17
11/12/2022 4:30:00 AM 14.63 58.334 0.507 7.93 6.27 9.16
11/12/2022 4:45:00 AM 14.62 58.316 0.506 8 6.2 9.17
11/12/2022 5:00:00 AM 14.62 58.316 0.499 8.03 7.38 9.16
11/12/2022 5:15:00 AM 14.62 58.316 0.503 7.92 8.17 9.17
11/12/2022 5:30:00 AM 14.62 58.316 0.487 7.89 6.86 9.17
11/12/2022 5:45:00 AM 14.65 58.37 0.481 7.9 6.74 9.16
11/12/2022 6:00:00 AM 14.67 58.406 0.473 7.88 7.03 9.16
11/12/2022 6:15:00 AM 14.7 58.46 0.47 7.87 6.57 9.15
11/12/2022 6:30:00 AM 14.72 58.496 0.455 7.86 6.93 9.13
11/12/2022 6:45:00 AM 14.75 58.55 0.471 7.83 7.26 9.13
11/12/2022 7:00:00 AM 14.78 58.604 0.445 7.83 7.08 9.12
11/12/2022 7:15:00 AM 14.81 58.658 0.51 7.86 7.3 9.11
11/12/2022 7:30:00 AM 14.83 58.694 0.505 7.85 7.67 9.11
11/12/2022 7:45:00 AM 14.85 58.73 0.497 7.86 8.62 9.12
11/12/2022 8:00:00 AM 14.85 58.73 0.491 7.84 7.93 9.12
11/12/2022 8:15:00 AM 14.87 58.766 0.486 7.87 8.49 9.15
11/12/2022 8:30:00 AM 14.88 58.784 0.401 7.84 8.25 9.15
11/12/2022 8:45:00 AM 14.9 58.82 0.479 7.87 7.95 9.18
11/12/2022 9:00:00 AM 14.9 58.82 0.365 7.8 8.78 9.17
11/12/2022 9:15:00 AM 14.92 58.856 0.368 7.81 8.58 9.19
11/12/2022 9:30:00 AM 14.91 58.838 0.369 7.82 8.59 9.18
11/12/2022 9:45:00 AM 14.9 58.82 0.367 7.8 8.85 9.17
11/12/2022 10:00:00 AM 14.91 58.838 0.365 7.79 9.69 9.2
11/12/2022 10:15:00 AM 14.93 58.874 0.386 7.84 9.27 9.23
11/12/2022 10:30:00 AM 14.95 58.91 0.366 7.81 9.16 9.24
11/12/2022 10:45:00 AM 14.93 58.874 0.366 7.82 9.63 9.23
11/12/2022 11:00:00 AM 14.93 58.874 0.367 7.74 10.36 9.22
11/12/2022 11:15:00 AM 14.96 58.928 0.363 7.83 10.54 9.28
11/12/2022 11:30:00 AM 14.99 58.982 0.363 7.84 10.06 9.28
11/12/2022 11:45:00 AM 14.99 58.982 0.363 7.84 13.2 9.26
11/12/2022 12:00:00 PM 15.02 59.036 0.362 7.8 10.32 9.27
11/12/2022 12:15:00 PM 15.02 59.036 0.36 7.75 10.82 9.25
11/12/2022 12:30:00 PM 15.04 59.072 0.362 7.83 11.63 9.25
11/12/2022 12:45:00 PM 15.06 59.108 0.359 7.81 10.85 9.26
11/12/2022 1:00:00 PM 15.09 59.162 0.356 7.82 11.11 9.24
11/12/2022 1:15:00 PM 15.12 59.216 0.357 7.81 11.04 9.27
11/12/2022 1:30:00 PM 15.15 59.27 0.356 7.83 10.62 9.25
11/12/2022 1:45:00 PM 15.19 59.342 0.357 7.82 11.36 9.26
11/12/2022 2:00:00 PM 15.24 59.432 0.354 7.82 11.11 9.27
11/12/2022 2:15:00 PM 15.26 59.468 0.357 7.82 11.14 9.27
11/12/2022 2:30:00 PM 15.29 59.522 0.356 7.82 11.56 9.27
11/12/2022 2:45:00 PM 15.33 59.594 0.356 7.82 11.44 9.26
11/12/2022 3:00:00 PM 15.35 59.63 0.36 7.72 11.79 9.24
11/12/2022 3:15:00 PM 15.39 59.702 0.356 7.69 11.4 9.25
11/12/2022 3:30:00 PM 15.42 59.756 0.358 7.7 11.04 9.25
11/12/2022 3:45:00 PM 15.44 59.792 0.355 7.69 11.55 9.24
11/12/2022 4:00:00 PM 15.47 59.846 0.359 7.69 10.53 9.24
11/12/2022 4:15:00 PM 15.49 59.882 0.358 7.7 11.48 9.23
11/12/2022 4:30:00 PM 15.52 59.936 0.357 7.69 11.31 9.23
11/12/2022 4:45:00 PM 15.54 59.972 0.359 7.72 10.61 9.23
11/12/2022 5:00:00 PM 15.55 59.99 0.357 7.71 10.88 9.22
11/12/2022 5:15:00 PM 15.57 60.026 0.356 7.64 10.31 9.21
11/12/2022 5:30:00 PM 15.58 60.044 0.36 7.7 11.08 9.21
11/12/2022 5:45:00 PM 15.59 60.062 0.358 7.7 10.53 9.2
11/12/2022 6:00:00 PM 15.59 60.062 0.362 7.7 11.03 9.19
11/12/2022 6:15:00 PM 15.59 60.062 0.355 7.7 10.37 9.18
11/12/2022 6:30:00 PM 15.6 60.08 0.358 7.7 10.9 9.17
11/12/2022 6:45:00 PM 15.59 60.062 0.357 7.69 10.66 9.15
11/12/2022 7:00:00 PM 15.59 60.062 0.36 7.7 10.09 9.14
11/12/2022 7:15:00 PM 15.59 60.062 0.356 7.69 10.43 9.13
11/12/2022 7:30:00 PM 15.59 60.062 0.356 7.67 9.63 9.11
11/12/2022 7:45:00 PM 15.58 60.044 0.355 7.68 10.23 9.1
11/12/2022 8:00:00 PM 15.57 60.026 0.359 7.66 9.77 9.09
11/12/2022 8:15:00 PM 15.56 60.008 0.353 7.68 9.76 9.08
11/12/2022 8:30:00 PM 15.54 59.972 0.356 7.68 10.12 9.07
11/12/2022 8:45:00 PM 15.52 59.936 0.355 7.71 9.81 9.06
11/12/2022 9:00:00 PM 15.51 59.918 0.355 7.66 9.14 9.05
11/12/2022 9:15:00 PM 15.49 59.882 0.358 7.71 9.76 9.05
11/12/2022 9:30:00 PM 15.46 59.828 0.357 7.68 9.51 9.05
11/12/2022 9:45:00 PM 15.43 59.774 0.354 7.66 9.12 9.04
11/12/2022 10:00:00 PM 15.41 59.738 0.357 7.66 9.7 9.04
11/12/2022 10:15:00 PM 15.37 59.666 0.357 7.66 8.98 9.05
11/12/2022 10:30:00 PM 15.34 59.612 0.358 7.64 8.63 9.04
11/12/2022 10:45:00 PM 15.31 59.558 0.357 7.67 8.57 9.05
11/12/2022 11:00:00 PM 15.26 59.468 0.358 7.66 8.62 9.04
11/12/2022 11:15:00 PM 15.23 59.414 0.357 7.66 8.35 9.05
11/12/2022 11:30:00 PM 15.18 59.324 0.358 7.65 7.93 9.05
11/12/2022 11:45:00 PM 15.13 59.234 0.357 7.67 8.05 9.05
11/13/2022 12:00:00 AM 15.09 59.162 0.36 7.66 8.12 9.05
11/13/2022 12:15:00 AM 15.05 59.09 0.356 7.68 7.98 9.05
11/13/2022 12:30:00 AM 15 59 0.357 7.67 8.26 9.06
11/13/2022 12:45:00 AM 14.96 58.928 0.355 7.71 7.93 9.07
11/13/2022 1:00:00 AM 14.91 58.838 0.356 7.65 8 9.07
11/13/2022 1:15:00 AM 14.87 58.766 0.355 7.72 7.51 9.07
11/13/2022 1:30:00 AM 14.82 58.676 0.354 7.72 8 9.08
11/13/2022 1:45:00 AM 14.75 58.55 0.355 7.7 8.8 9.07
11/13/2022 2:00:00 AM 14.7 58.46 0.356 7.64 7.74 9.08
11/13/2022 2:15:00 AM 14.66 58.388 0.353 7.65 8.26 9.09
11/13/2022 2:30:00 AM 14.61 58.298 0.354 7.67 7.43 9.09
11/13/2022 2:45:00 AM 14.55 58.19 0.354 7.67 7.55 9.09
11/13/2022 3:00:00 AM 14.5 58.1 0.359 7.66 7.66 9.1
11/13/2022 3:15:00 AM 14.45 58.01 0.356 7.66 7.58 9.11
11/13/2022 3:30:00 AM 14.39 57.902 0.357 7.66 7.23 9.11
11/13/2022 3:45:00 AM 14.34 57.812 0.356 7.68 7.41 9.12
11/13/2022 4:00:00 AM 14.26 57.668 0.357 7.68 7.68 9.13
11/13/2022 4:15:00 AM 14.21 57.578 0.357 7.65 7.53 9.13
11/13/2022 4:30:00 AM 14.15 57.47 0.356 7.67 7.25 9.15
11/13/2022 4:45:00 AM 14.09 57.362 0.361 7.7 7.55 9.16
11/13/2022 5:00:00 AM 14.04 57.272 0.357 7.69 7.18 9.17
11/13/2022 5:15:00 AM 13.98 57.164 0.358 7.67 7.26 9.18
11/13/2022 5:30:00 AM 13.92 57.056 0.357 7.62 7.27 9.18
11/13/2022 5:45:00 AM 13.86 56.948 0.358 7.63 7.24 9.19
11/13/2022 6:00:00 AM 13.81 56.858 0.357 7.65 7.35 9.2
11/13/2022 6:15:00 AM 13.75 56.75 0.361 7.63 7.5 9.21
11/13/2022 6:30:00 AM 13.69 56.642 0.364 7.66 9.76 9.18
11/13/2022 6:45:00 AM 13.64 56.552 0.361 7.63 7.7 9.22
11/13/2022 7:00:00 AM 13.57 56.426 0.36 7.67 7.33 9.23
11/13/2022 7:15:00 AM 13.52 56.336 0.362 7.64 7.05 9.25
11/13/2022 7:30:00 AM 13.46 56.228 0.362 7.68 7.13 9.28
11/13/2022 7:45:00 AM 13.4 56.12 0.367 7.71 7.14 9.29
11/13/2022 8:00:00 AM 13.33 55.994 0.364 7.7 6.84 9.32
11/13/2022 8:15:00 AM 13.28 55.904 0.365 7.73 6.99 9.36
11/13/2022 8:30:00 AM 13.24 55.832 0.365 7.71 6.96 9.4
11/13/2022 8:45:00 AM 13.19 55.742 0.367 7.7 7.31 9.44
11/13/2022 9:00:00 AM 13.13 55.634 0.366 7.73 6.67 9.44
11/13/2022 9:15:00 AM 13.07 55.526 0.368 7.65 7.51 9.46
11/13/2022 9:30:00 AM 13.02 55.436 0.369 7.65 7.86 9.48
11/13/2022 9:45:00 AM 12.96 55.328 0.369 7.66 7.38 9.5
11/13/2022 10:00:00 AM 12.91 55.238 0.371 7.68 7.22 9.51
11/13/2022 10:15:00 AM 12.87 55.166 0.372 7.69 6.94 9.54
11/13/2022 10:30:00 AM 12.82 55.076 0.374 7.69 7.02 9.55
11/13/2022 10:45:00 AM 12.83 55.094 0.374 7.73 8.52 9.61
11/13/2022 11:00:00 AM 12.85 55.13 0.377 7.7 6.48 9.66
11/13/2022 11:15:00 AM 12.84 55.112 0.378 7.73 6.28 9.66
11/13/2022 11:30:00 AM 12.81 55.058 0.379 7.73 6.45 9.64
11/13/2022 11:45:00 AM 12.72 54.896 0.384 7.76 6.18 9.59
11/13/2022 12:00:00 PM 12.74 54.932 0.381 7.76 6.16 9.68
11/13/2022 12:15:00 PM 12.67 54.806 0.383 7.75 6.12 9.62
11/13/2022 12:30:00 PM 12.6 54.68 0.384 7.73 6.14 9.63
11/13/2022 12:45:00 PM 12.6 54.68 0.385 7.78 5.95 9.69
11/13/2022 1:00:00 PM 12.54 54.572 0.39 7.74 6.35 9.66
11/13/2022 1:15:00 PM 12.49 54.482 0.383 7.73 6.32 9.67
11/13/2022 1:30:00 PM 12.51 54.518 0.382 7.74 6.07 9.78
11/13/2022 1:45:00 PM 12.5 54.5 0.382 7.74 5.59 9.79
11/13/2022 2:00:00 PM 12.47 54.446 0.383 7.75 5.93 9.78
11/13/2022 2:15:00 PM 12.42 54.356 0.384 7.72 5.9 9.73
11/13/2022 2:30:00 PM 12.37 54.266 0.387 7.74 5.51 9.73
11/13/2022 2:45:00 PM 12.33 54.194 0.386 7.72 5.6 9.77
11/13/2022 3:00:00 PM 12.27 54.086 0.388 7.73 5.97 9.78
11/13/2022 3:15:00 PM 12.22 53.996 0.389 7.78 5.53 9.8
11/13/2022 3:30:00 PM 12.18 53.924 0.394 7.75 6.1 9.81
11/13/2022 3:45:00 PM 12.14 53.852 0.491 7.75 5.61 9.81
11/13/2022 4:00:00 PM 12.11 53.798 0.391 7.81 5.58 9.81
11/13/2022 4:15:00 PM 12.07 53.726 0.39 7.76 5.43 9.83
11/13/2022 4:30:00 PM 12.02 53.636 0.393 7.74 6.16 9.88
11/13/2022 4:45:00 PM 11.95 53.51 0.391 7.77 5.46 9.88
11/13/2022 5:00:00 PM 11.89 53.402 0.395 7.81 6.28 9.89
11/13/2022 5:15:00 PM 11.83 53.294 0.392 7.75 5.41 9.93
11/13/2022 5:30:00 PM 11.78 53.204 0.395 7.84 5.89 9.94
11/13/2022 5:45:00 PM 11.73 53.114 0.395 7.74 5.27 9.98
11/13/2022 6:00:00 PM 11.67 53.006 0.393 7.81 5.35 10
11/13/2022 6:15:00 PM 11.64 52.952 0.397 7.83 5.66 10.04
11/13/2022 6:30:00 PM 11.61 52.898 0.396 7.88 5.36 10.06
11/13/2022 6:45:00 PM 11.57 52.826 0.399 7.86 4.97 10.09
11/13/2022 7:00:00 PM 11.54 52.772 0.398 7.85 5.15 10.09
11/13/2022 7:15:00 PM 11.49 52.682 0.398 7.87 5.39 10.06
11/13/2022 7:30:00 PM 11.45 52.61 0.396 7.86 5 10.12
11/13/2022 7:45:00 PM 11.42 52.556 0.401 7.87 4.99 10.12
11/13/2022 8:00:00 PM 11.38 52.484 0.443 7.91 5.03 10.14
11/13/2022 8:15:00 PM 11.35 52.43 0.4 7.88 5.06 10.17
11/13/2022 8:30:00 PM 11.31 52.358 0.401 7.89 5.09 10.19
11/13/2022 8:45:00 PM 11.27 52.286 0.425 7.9 5.11 10.18
11/13/2022 9:00:00 PM 11.22 52.196 0.401 7.89 5 10.22
11/13/2022 9:15:00 PM 11.17 52.106 0.401 7.88 5.18 10.23
11/13/2022 9:30:00 PM 11.13 52.034 0.402 7.88 4.97 10.23
11/13/2022 9:45:00 PM 11.08 51.944 0.4 7.92 4.88 10.26
11/13/2022 10:00:00 PM 11.04 51.872 0.403 7.94 5.05 10.29
11/13/2022 10:15:00 PM 10.99 51.782 0.506 7.94 4.92 10.3
11/13/2022 10:30:00 PM 10.94 51.692 0.402 7.94 5.16 10.31
11/13/2022 10:45:00 PM 10.89 51.602 0.401 7.92 5.05 10.33
11/13/2022 11:00:00 PM 10.83 51.494 0.408 7.93 4.84 10.34
11/13/2022 11:15:00 PM 10.77 51.386 0.408 7.95 4.92 10.35
11/13/2022 11:30:00 PM 10.72 51.296 0.403 7.94 5.08 10.36
11/13/2022 11:45:00 PM 10.66 51.188 0.403 7.93 5.32 10.36
11/14/2022 12:00:00 AM 10.6 51.08 0.402 7.94 4.89 10.37
11/14/2022 12:15:00 AM 10.55 50.99 0.404 7.93 5.96 10.37
11/14/2022 12:30:00 AM 10.49 50.882 0.411 7.92 5.07 10.37
11/14/2022 12:45:00 AM 10.44 50.792 0.404 7.92 5.05 10.38
11/14/2022 1:00:00 AM 10.38 50.684 0.409 7.93 4.92 10.39
11/14/2022 1:15:00 AM 10.33 50.594 0.406 7.92 4.94 10.39
11/14/2022 1:30:00 AM 10.27 50.486 0.409 7.93 4.83 10.39
11/14/2022 1:45:00 AM 10.21 50.378 0.402 7.94 4.69 10.39
11/14/2022 2:00:00 AM 10.16 50.288 0.407 7.9 4.5 10.4
11/14/2022 2:15:00 AM 10.11 50.198 0.411 7.86 4.92 10.4
11/14/2022 2:30:00 AM 10.06 50.108 0.407 7.87 4.96 10.4
11/14/2022 2:45:00 AM 10.01 50.018 0.405 7.85 4.49 10.41
11/14/2022 3:00:00 AM 9.96 49.928 0.405 7.84 4.68 10.41
11/14/2022 3:15:00 AM 9.9 49.82 0.406 7.84 5 10.43
11/14/2022 3:30:00 AM 9.85 49.73 0.411 7.87 4.68 10.43
11/14/2022 3:45:00 AM 9.8 49.64 0.408 7.87 4.48 10.44
11/14/2022 4:00:00 AM 9.75 49.55 0.411 7.91 187.78 10.44
11/14/2022 4:15:00 AM 9.7 49.46 0.407 7.87 5.57 10.46
11/14/2022 4:30:00 AM 9.64 49.352 0.404 7.93 4.88 10.47
11/14/2022 4:45:00 AM 9.59 49.262 0.407 7.86 4.5 10.48
11/14/2022 5:00:00 AM 9.54 49.172 0.407 7.82 4.53 10.48
11/14/2022 5:15:00 AM 9.49 49.082 0.407 7.93 4.79 10.5
11/14/2022 5:30:00 AM 9.44 48.992 0.406 7.85 4.55 10.5
11/14/2022 5:45:00 AM 9.4 48.92 0.404 7.85 4.59 10.52
11/14/2022 6:00:00 AM 9.34 48.812 0.407 7.91 4.5 10.53
11/14/2022 6:15:00 AM 9.3 48.74 0.406 7.84 4.58 10.54
11/14/2022 6:30:00 AM 9.25 48.65 0.409 7.83 4.58 10.54
11/14/2022 6:45:00 AM 9.21 48.578 0.407 7.84 4.75 10.55
11/14/2022 7:00:00 AM 9.17 48.506 0.407 7.88 4.88 10.56
11/14/2022 7:15:00 AM 9.13 48.434 0.407 7.85 5.09 10.58
11/14/2022 7:30:00 AM 9.09 48.362 0.409 7.85 4.97 10.61
11/14/2022 7:45:00 AM 9.06 48.308 0.409 7.9 4.36 10.63
11/14/2022 8:00:00 AM 9.02 48.236 0.407 7.85 4.87 10.66
11/14/2022 8:15:00 AM 8.99 48.182 0.405 7.87 5.71 10.68
11/14/2022 8:30:00 AM 8.96 48.128 0.408 7.92 4.78 10.7
11/14/2022 8:45:00 AM 8.95 48.11 0.408 7.92 5.54 10.76
11/14/2022 9:00:00 AM 8.93 48.074 0.409 7.9 4.99 10.8
11/14/2022 9:15:00 AM 8.9 48.02 0.409 7.89 5.07 10.81
11/14/2022 9:30:00 AM 8.88 47.984 0.41 7.93 4.79 10.85
11/14/2022 9:45:00 AM 8.88 47.984 0.406 7.93 4.27 10.88
11/14/2022 10:00:00 AM 8.86 47.948 0.408 7.94 4.53 10.89
11/14/2022 10:15:00 AM 8.86 47.948 0.409 7.92 4.33 10.92
11/14/2022 10:30:00 AM 8.85 47.93 0.411 7.95 4.62 10.93
11/14/2022 10:45:00 AM 8.84 47.912 0.409 7.93 4.2 10.92
11/14/2022 11:00:00 AM 8.84 47.912 0.41 7.9 4.15 10.95
11/14/2022 11:15:00 AM 8.84 47.912 0.41 7.93 4.26 10.97
11/14/2022 11:30:00 AM 8.85 47.93 0.411 7.91 4.32 11.01
11/14/2022 11:45:00 AM 8.84 47.912 0.415 7.96 4.22 11.02
11/14/2022 12:00:00 PM 8.85 47.93 0.415 7.91 4.08 11.04
11/14/2022 12:15:00 PM 8.83 47.894 0.411 7.92 4.24 11.02
11/14/2022 12:30:00 PM 8.82 47.876 0.413 7.96 4.11 11.02
11/14/2022 12:45:00 PM 8.81 47.858 0.412 7.9 4.49 11.03
11/14/2022 1:00:00 PM 8.86 47.948 0.413 7.93 4.14 11.09
11/14/2022 1:15:00 PM 8.84 47.912 0.415 7.95 4.41 11.08
11/14/2022 1:30:00 PM 8.78 47.804 0.413 7.93 4.68 11.01
11/14/2022 1:45:00 PM 8.77 47.786 0.416 7.93 4.17 11.03
11/14/2022 2:00:00 PM 8.78 47.804 0.415 7.94 4.09 11.06
11/14/2022 2:15:00 PM 8.78 47.804 0.415 7.92 4.03 11.07
11/14/2022 2:30:00 PM 8.76 47.768 0.416 7.93 4.29 11.06
11/14/2022 2:45:00 PM 8.75 47.75 0.415 7.91 4.48 11.04
11/14/2022 3:00:00 PM 8.73 47.714 0.421 7.92 4.38 11.04
11/14/2022 3:15:00 PM 8.71 47.678 0.417 7.94 4.17 11.04
11/14/2022 3:30:00 PM 8.7 47.66 0.418 7.92 4.26 11.04
11/14/2022 3:45:00 PM 8.67 47.606 0.414 7.91 7.39 11.04
11/14/2022 4:00:00 PM 8.65 47.57 0.422 7.96 4.27 11.04
11/14/2022 4:15:00 PM 8.64 47.552 0.419 7.93 3.9 11.04
11/14/2022 4:30:00 PM 8.62 47.516 0.42 7.9 3.76 11.04
11/14/2022 4:45:00 PM 8.61 47.498 0.42 7.95 3.98 11.05
11/14/2022 5:00:00 PM 8.6 47.48 0.424 7.97 4.77 11.05
11/14/2022 5:15:00 PM 8.59 47.462 0.42 7.95 4.3 11.06
11/14/2022 5:30:00 PM 8.58 47.444 0.421 7.96 4.11 11.08
11/14/2022 5:45:00 PM 8.57 47.426 0.426 7.99 4.35 11.08
11/14/2022 6:00:00 PM 8.56 47.408 0.423 8 4.29 11.12
11/14/2022 6:15:00 PM 8.55 47.39 0.422 7.99 4.14 11.13
11/14/2022 6:30:00 PM 8.52 47.336 0.427 8 4.32 11.15
11/14/2022 6:45:00 PM 8.49 47.282 0.425 7.99 4.13 11.19
11/14/2022 7:00:00 PM 8.47 47.246 0.424 8 4.14 11.21
11/14/2022 7:15:00 PM 8.44 47.192 0.425 8.01 4.09 11.23
11/14/2022 7:30:00 PM 8.42 47.156 0.427 8.01 3.91 11.25
11/14/2022 7:45:00 PM 8.4 47.12 0.432 8.03 4.07 11.28
11/14/2022 8:00:00 PM 8.39 47.102 0.427 8 4.23 11.3
11/14/2022 8:15:00 PM 8.37 47.066 0.43 8.03 3.98 11.33
11/14/2022 8:30:00 PM 8.36 47.048 0.434 8.04 4.04 11.34
11/14/2022 8:45:00 PM 8.34 47.012 0.432 8.02 3.89 11.36
11/14/2022 9:00:00 PM 8.33 46.994 0.428 8.02 3.67 11.37
11/14/2022 9:15:00 PM 8.32 46.976 0.429 8.02 3.6 11.39
11/14/2022 9:30:00 PM 8.31 46.958 0.427 8.04 3.7 11.4
11/14/2022 9:45:00 PM 8.3 46.94 0.432 8.06 4.33 11.42
11/14/2022 10:00:00 PM 8.29 46.922 0.428 8.06 3.85 11.44
11/14/2022 10:15:00 PM 8.28 46.904 0.434 8.08 3.84 11.46
11/14/2022 10:30:00 PM 8.27 46.886 0.431 8.08 3.91 11.48
11/14/2022 10:45:00 PM 8.26 46.868 0.434 8.08 3.89 11.48
11/14/2022 11:00:00 PM 8.25 46.85 0.433 8.12 3.89 11.49
11/14/2022 11:15:00 PM 8.22 46.796 0.435 8.14 4.18 11.49
11/14/2022 11:30:00 PM 8.21 46.778 0.434 8.13 4.03 11.5
11/14/2022 11:45:00 PM 8.18 46.724 0.464 8.05 3.85 11.5
11/15/2022 12:00:00 AM 8.16 46.688 0.438 8.03 4.1 11.5
11/15/2022 12:15:00 AM 8.14 46.652 0.439 8.02 4.24 11.51
11/15/2022 12:30:00 AM 8.11 46.598 0.439 8.06 4.01 11.5
11/15/2022 12:45:00 AM 8.08 46.544 0.439 8.11 3.98 11.5
11/15/2022 1:00:00 AM 8.06 46.508 0.439 8.06 4.1 11.5
11/15/2022 1:15:00 AM 8.02 46.436 0.44 8.08 4.18 11.5
11/15/2022 1:30:00 AM 7.99 46.382 0.44 8.05 4.19 11.49
11/15/2022 1:45:00 AM 7.96 46.328 0.47 8.01 3.73 11.49
11/15/2022 2:00:00 AM 7.92 46.256 0.44 8.02 4.07 11.48
11/15/2022 2:15:00 AM 7.88 46.184 0.442 8.03 4.01 11.48
11/15/2022 2:30:00 AM 7.84 46.112 0.441 8.02 3.68 11.47
11/15/2022 2:45:00 AM 7.8 46.04 0.442 8.02 3.89 11.46
11/15/2022 3:00:00 AM 7.76 45.968 0.443 8.03 3.99 11.46
11/15/2022 3:15:00 AM 7.72 45.896 0.442 8.02 4.14 11.45
11/15/2022 3:30:00 AM 7.68 45.824 0.443 8.06 3.85 11.42
11/15/2022 3:45:00 AM 7.64 45.752 0.444 8.1 3.73 11.43
11/15/2022 4:00:00 AM 7.6 45.68 0.446 7.98 4.18 11.42
11/15/2022 4:15:00 AM 7.56 45.608 0.446 8.02 3.65 11.41
11/15/2022 4:30:00 AM 7.51 45.518 0.475 8.01 3.97 11.41
11/15/2022 4:45:00 AM 7.47 45.446 0.445 8.03 4.9 11.39
11/15/2022 5:00:00 AM 7.43 45.374 0.475 8.07 8.42 11.4
11/15/2022 5:15:00 AM 7.38 45.284 0.445 8.04 94.79 11.4
11/15/2022 5:30:00 AM 7.34 45.212 0.449 8.04 7.62 11.41
11/15/2022 5:45:00 AM 7.3 45.14 0.447 8.02 6.03 11.4
11/15/2022 6:00:00 AM 7.25 45.05 0.448 8.05 6.32 11.41
11/15/2022 6:15:00 AM 7.21 44.978 0.475 8.03 4 11.41
11/15/2022 6:30:00 AM 7.16 44.888 0.497 8.03 3.87 11.41
11/15/2022 6:45:00 AM 7.12 44.816 0.451 7.97 4.15 11.42
11/15/2022 7:00:00 AM 7.09 44.762 0.443 7.99 4.04 11.43
11/15/2022 7:15:00 AM 7.04 44.672 0.45 8 5.83 11.45
11/15/2022 7:30:00 AM 7.01 44.618 0.446 8.04 4.07 11.48
11/15/2022 7:45:00 AM 6.99 44.582 0.449 7.97 3.79 11.51
11/15/2022 8:00:00 AM 6.96 44.528 0.446 7.99 3.66 11.54
11/15/2022 8:15:00 AM 6.94 44.492 0.454 8.01 3.56 11.56
11/15/2022 8:30:00 AM 6.93 44.474 0.446 8 4.07 11.6
11/15/2022 8:45:00 AM 6.92 44.456 0.449 8.01 4.33 11.64
11/15/2022 9:00:00 AM 6.9 44.42 0.445 8.02 3.86 11.65
11/15/2022 9:15:00 AM 6.89 44.402 0.448 7.98 3.4 11.68
11/15/2022 9:30:00 AM 6.87 44.366 0.455 7.99 3.24 11.67
11/15/2022 9:45:00 AM 6.87 44.366 0.45 8.02 3.78 11.71
11/15/2022 10:00:00 AM 6.88 44.384 0.448 8.05 4.52 11.72
11/15/2022 10:15:00 AM 6.86 44.348 0.449 8.02 5.11 11.71
11/15/2022 10:30:00 AM 6.84 44.312 0.445 8.03 3.96 11.7
11/15/2022 10:45:00 AM 6.82 44.276 0.45 8.04 4.08 11.71
11/15/2022 11:00:00 AM 6.8 44.24 0.446 8.06 5.05 11.7
11/15/2022 11:15:00 AM 6.77 44.186 0.449 8.03 3.54 11.7
11/15/2022 11:30:00 AM 6.76 44.168 0.443 8.04 3.22 11.71
11/15/2022 11:45:00 AM 6.73 44.114 0.449 8.03 2.99 11.69
11/15/2022 12:00:00 PM 6.7 44.06 0.447 8.02 3.16 11.68
11/15/2022 12:15:00 PM 6.68 44.024 0.45 8 3.37 11.65
11/15/2022 12:30:00 PM 6.65 43.97 0.453 7.95 3.13 11.65
11/15/2022 12:45:00 PM 6.62 43.916 0.453 7.92 3.33 11.66
11/15/2022 1:00:00 PM 6.61 43.898 0.452 8.01 2.98 11.67
11/15/2022 1:15:00 PM 6.59 43.862 0.449 8.02 3.35 11.72
11/15/2022 1:30:00 PM 6.58 43.844 0.453 8.02 2.89 11.71
11/15/2022 1:45:00 PM 6.56 43.808 0.452 7.97 3.63 11.72
11/15/2022 2:00:00 PM 6.55 43.79 0.454 7.97 4.04 11.78
11/15/2022 2:15:00 PM 6.52 43.736 0.452 7.95 3.08 11.75
11/15/2022 2:30:00 PM 6.51 43.718 0.454 7.96 3.14 11.77
11/15/2022 2:45:00 PM 6.49 43.682 0.452 7.96 3.19 11.78
11/15/2022 3:00:00 PM 6.47 43.646 0.454 7.95 5.15 11.74
11/15/2022 3:15:00 PM 6.44 43.592 0.453 7.97 5.03 11.72
11/15/2022 3:30:00 PM 6.42 43.556 0.455 7.96 4.71 11.73
11/15/2022 3:45:00 PM 6.39 43.502 0.454 7.96 3.11 11.73
11/15/2022 4:00:00 PM 6.37 43.466 0.455 8.01 3.52 11.72
11/15/2022 4:15:00 PM 6.35 43.43 0.459 8 2.9 11.7
11/15/2022 4:30:00 PM 6.32 43.376 0.455 8.01 3.08 11.71
11/15/2022 4:45:00 PM 6.28 43.304 0.455 8.03 4.7 11.72
11/15/2022 5:00:00 PM 6.21 43.178 0.454 8.03 6.26 11.75
11/15/2022 5:15:00 PM 6.2 43.16 0.453 8.03 4.21 11.77
11/15/2022 5:30:00 PM 6.2 43.16 0.452 8.02 3.38 11.78
11/15/2022 5:45:00 PM 6.2 43.16 0.455 8.01 6.31 11.79
11/15/2022 6:00:00 PM 6.19 43.142 0.458 8.01 3.4 11.79
11/15/2022 6:15:00 PM 6.19 43.142 0.459 8.01 9 11.81
11/15/2022 6:30:00 PM 6.18 43.124 0.457 8.05 6.6 11.85
11/15/2022 6:45:00 PM 6.18 43.124 0.458 7.98 45.84 11.87
11/15/2022 7:00:00 PM 6.18 43.124 0.434 7.99 4.5 11.88
11/15/2022 7:15:00 PM 6.18 43.124 0.455 8.01 3.26 11.91
11/15/2022 7:30:00 PM 6.18 43.124 0.455 7.99 3.38 11.92
11/15/2022 7:45:00 PM 6.18 43.124 0.453 7.94 3.96 11.93
11/15/2022 8:00:00 PM 6.18 43.124 0.45 8.03 3.39 11.95
11/15/2022 8:15:00 PM 6.19 43.142 0.453 8.03 2.93 11.96
11/15/2022 8:30:00 PM 6.2 43.16 0.452 8.04 3.41 11.99
11/15/2022 8:45:00 PM 6.21 43.178 0.453 8.05 2.71 11.99
11/15/2022 9:00:00 PM 6.23 43.214 0.452 8.03 2.76 11.98
11/15/2022 9:15:00 PM 6.24 43.232 0.453 8.01 10.63 12.02
11/15/2022 9:30:00 PM 6.26 43.268 0.451 8.02 3.23 12.04
11/15/2022 9:45:00 PM 6.28 43.304 0.453 8.04 3.66 12.05
11/15/2022 10:00:00 PM 6.3 43.34 0.455 8.09 3.24 12.03
11/15/2022 10:15:00 PM 6.32 43.376 0.455 8.06 3.34 12.06
11/15/2022 10:30:00 PM 6.34 43.412 0.455 8.06 3.25 12.05
11/15/2022 10:45:00 PM 6.35 43.43 0.456 8.07 3.14 12.05
11/15/2022 11:00:00 PM 6.36 43.448 0.458 8.06 3.07 12.03
11/15/2022 11:15:00 PM 6.38 43.484 0.462 8.03 3.12 12.03
11/15/2022 11:30:00 PM 6.38 43.484 0.458 8.04 3.07 12.04
11/15/2022 11:45:00 PM 6.39 43.502 0.459 8.05 3.59 11.97
11/16/2022 12:00:00 AM 6.39 43.502 0.459 8.03 3.1 12.02
11/16/2022 12:15:00 AM 6.4 43.52 0.459 8.05 2.98 12
11/16/2022 12:30:00 AM 6.4 43.52 0.456 8.06 3.2 11.99
11/16/2022 12:45:00 AM 6.41 43.538 0.459 8.07 3 11.97
11/16/2022 1:00:00 AM 6.41 43.538 0.459 8.12 3.21 11.94
11/16/2022 1:15:00 AM 6.41 43.538 0.457 8.08 3.76 11.92
11/16/2022 1:30:00 AM 6.42 43.556 0.458 8.05 4.48 11.9
11/16/2022 1:45:00 AM 6.42 43.556 0.459 8.03 4.88 11.89
11/16/2022 2:00:00 AM 6.42 43.556 0.458 7.99 5.03 11.88
11/16/2022 2:15:00 AM 6.42 43.556 0.46 8.02 5.16 11.87
11/16/2022 2:30:00 AM 6.43 43.574 0.458 8.01 4.32 11.83
11/16/2022 2:45:00 AM 6.44 43.592 0.457 8 4.76 11.82
11/16/2022 3:00:00 AM 6.46 43.628 0.459 8.01 4.96 11.82
11/16/2022 3:15:00 AM 6.49 43.682 0.461 7.97 7.04 11.8
11/16/2022 3:30:00 AM 6.53 43.754 0.459 7.91 5.3 11.75
11/16/2022 3:45:00 AM 6.57 43.826 0.459 7.9 7.01 11.76
11/16/2022 4:00:00 AM 6.6 43.88 0.454 7.96 7 11.73
11/16/2022 4:15:00 AM 6.62 43.916 0.45 7.96 9.85 11.72
11/16/2022 4:30:00 AM 6.63 43.934 0.442 7.92 12.4 11.71
11/16/2022 4:45:00 AM 6.61 43.898 0.434 7.89 6.71 11.72
11/16/2022 5:00:00 AM 6.58 43.844 0.435 7.86 7.23 11.73
11/16/2022 5:15:00 AM 6.54 43.772 0.434 7.91 9.92 11.73
11/16/2022 5:30:00 AM 6.5 43.7 0.432 7.94 9.33 11.75
11/16/2022 5:45:00 AM 6.46 43.628 0.431 7.92 9.9 11.78
11/16/2022 6:00:00 AM 6.43 43.574 0.429 7.94 11.85 11.8
11/16/2022 6:15:00 AM 6.4 43.52 0.428 7.95 8.32 11.83
11/16/2022 6:30:00 AM 6.38 43.484 0.426 7.95 13.66 11.84
11/16/2022 6:45:00 AM 6.37 43.466 0.425 7.93 11.75 11.87
11/16/2022 7:00:00 AM 6.37 43.466 0.423 7.95 10.86 11.88
11/16/2022 7:15:00 AM 6.38 43.484 0.427 8 15.83 11.89
11/16/2022 7:30:00 AM 6.39 43.502 0.424 7.91 13.23 11.9
11/16/2022 7:45:00 AM 6.41 43.538 0.425 8 14.83 11.89
11/16/2022 8:00:00 AM 6.42 43.556 0.428 7.96 11.92 11.89
11/16/2022 8:15:00 AM 6.44 43.592 0.419 7.93 22.71 11.88
11/16/2022 8:30:00 AM 6.45 43.61 0.418 7.92 17.92 11.87
11/16/2022 8:45:00 AM 6.47 43.646 0.404 7.9 18.36 11.87
11/16/2022 9:00:00 AM 6.47 43.646 0.391 7.92 30.64 11.87
11/16/2022 9:15:00 AM 6.48 43.664 0.376 7.92 24.28 11.89
11/16/2022 9:30:00 AM 6.48 43.664 0.365 7.88 21.06 11.89
11/16/2022 9:45:00 AM 6.49 43.682 0.353 7.88 20.51 11.88
11/16/2022 10:00:00 AM 6.51 43.718 0.345 7.83 21.95 11.89
11/16/2022 10:15:00 AM 6.53 43.754 0.341 7.85 15.87 11.89
11/16/2022 10:30:00 AM 6.56 43.808 0.334 7.84 27.95 11.89
11/16/2022 10:45:00 AM 6.59 43.862 0.33 7.84 28.22 11.87
11/16/2022 11:00:00 AM -99999.99 -179968 -99999.99 -99999.99 -99999.99 -99999.99
11/16/2022 11:30:00 AM -99999.99 -179968 -99999.99 -99999.99 -99999.99 -99999.99
11/16/2022 12:15:00 PM -99999.99 -179968 -99999.99 -99999.99 -99999.99 -99999.99
11/16/2022 1:15:00 PM -99999.99 -179968 -99999.99 -99999.99 -99999.99 -99999.99
11/16/2022 2:00:00 PM -99999.99 -179968 -99999.99 -99999.99 -99999.99 -99999.99
11/16/2022 2:30:00 PM -99999.99 -179968 -99999.99 -99999.99 -99999.99 -99999.99
11/16/2022 3:15:00 PM -99999.99 -179968 -99999.99 -99999.99 -99999.99 -99999.99
11/16/2022 3:45:00 PM 7.27 45.086 0.31 7.82 27.95 11.68
11/16/2022 4:00:00 PM -99999.99 -179968 -99999.99 -99999.99 -99999.99 -99999.99
11/16/2022 4:15:00 PM -99999.99 -179968 -99999.99 -99999.99 -99999.99 -99999.99
11/17/2022 8:00:00 AM 6.76 44.168 0.362 7.82 9.29 11.53
11/17/2022 8:15:00 AM 6.77 44.186 0.362 7.96 9.38 11.56
11/17/2022 9:00:00 AM -99999.99 -179968 -99999.99 -99999.99 -99999.99 -99999.99
11/17/2022 9:15:00 AM -99999.99 -179968 -99999.99 -99999.99 -99999.99 -99999.99
11/17/2022 9:30:00 AM -99999.99 -179968 -99999.99 -99999.99 -99999.99 -99999.99
11/17/2022 9:45:00 AM -99999.99 -179968 -99999.99 -99999.99 -99999.99 -99999.99
11/17/2022 10:00:00 AM -99999.99 -179968 -99999.99 -99999.99 -99999.99 -99999.99
11/17/2022 10:15:00 AM -99999.99 -179968 -99999.99 -99999.99 -99999.99 -99999.99
11/17/2022 10:30:00 AM -99999.99 -179968 -99999.99 -99999.99 -99999.99 -99999.99
11/17/2022 10:45:00 AM -99999.99 -179968 -99999.99 -99999.99 -99999.99 -99999.99
11/17/2022 11:00:00 AM -99999.99 -179968 -99999.99 -99999.99 -99999.99 -99999.99
11/17/2022 11:15:00 AM -99999.99 -179968 -99999.99 -99999.99 -99999.99 -99999.99
11/17/2022 11:30:00 AM -99999.99 -179968 -99999.99 -99999.99 -99999.99 -99999.99
11/17/2022 11:45:00 AM -99999.99 -179968 -99999.99 -99999.99 -99999.99 -99999.99
11/17/2022 12:00:00 PM -99999.99 -179968 -99999.99 -99999.99 -99999.99 -99999.99
11/17/2022 12:15:00 PM -99999.99 -179968 -99999.99 -99999.99 -99999.99 -99999.99
11/17/2022 12:30:00 PM -99999.99 -179968 -99999.99 -99999.99 -99999.99 -99999.99
11/17/2022 12:45:00 PM -99999.99 -179968 -99999.99 -99999.99 -99999.99 -99999.99
11/17/2022 1:15:00 PM -99999.99 -179968 -99999.99 -99999.99 -99999.99 -99999.99
11/17/2022 1:45:00 PM -99999.99 -179968 -99999.99 -99999.99 -99999.99 -99999.99
11/17/2022 2:15:00 PM -99999.99 -179968 -99999.99 -99999.99 -99999.99 -99999.99
11/17/2022 3:00:00 PM -99999.99 -179968 -99999.99 -99999.99 -99999.99 -99999.99
11/17/2022 3:15:00 PM -99999.99 -179968 -99999.99 -99999.99 -99999.99 -99999.99
11/17/2022 3:30:00 PM -99999.99 -179968 -99999.99 -99999.99 -99999.99 -99999.99
11/17/2022 4:00:00 PM -99999.99 -179968 -99999.99 -99999.99 -99999.99 -99999.99
11/18/2022 8:00:00 AM -99999.99 -179968 -99999.99 -99999.99 -99999.99 -99999.99
11/18/2022 8:30:00 AM -99999.99 -179968 -99999.99 -99999.99 -99999.99 -99999.99
11/18/2022 8:45:00 AM -99999.99 -179968 -99999.99 -99999.99 -99999.99 -99999.99
11/18/2022 9:00:00 AM -99999.99 -179968 -99999.99 -99999.99 -99999.99 -99999.99
11/18/2022 9:15:00 AM -99999.99 -179968 -99999.99 -99999.99 -99999.99 -99999.99
11/18/2022 9:30:00 AM -99999.99 -179968 -99999.99 -99999.99 -99999.99 -99999.99
11/18/2022 9:45:00 AM -99999.99 -179968 -99999.99 -99999.99 -99999.99 -99999.99
11/18/2022 10:00:00 AM -99999.99 -179968 -99999.99 -99999.99 -99999.99 -99999.99
11/18/2022 10:15:00 AM -99999.99 -179968 -99999.99 -99999.99 -99999.99 -99999.99
11/18/2022 11:00:00 AM -99999.99 -179968 -99999.99 -99999.99 -99999.99 -99999.99
11/18/2022 11:15:00 AM -99999.99 -179968 -99999.99 -99999.99 -99999.99 -99999.99
11/18/2022 11:30:00 AM -99999.99 -179968 -99999.99 -99999.99 -99999.99 -99999.99
11/18/2022 12:00:00 PM -99999.99 -179968 -99999.99 -99999.99 -99999.99 -99999.99
11/18/2022 12:45:00 PM 5.79 42.422 0.426 7.85 3.31 12.16
11/18/2022 1:15:00 PM -99999.99 -179968 -99999.99 -99999.99 -99999.99 -99999.99
11/18/2022 2:00:00 PM -99999.99 -179968 -99999.99 -99999.99 -99999.99 -99999.99
11/18/2022 2:45:00 PM -99999.99 -179968 -99999.99 -99999.99 -99999.99 -99999.99
11/18/2022 4:30:00 PM -99999.99 -179968 -99999.99 -99999.99 -99999.99 -99999.99
11/18/2022 4:45:00 PM -99999.99 -179968 -99999.99 -99999.99 -99999.99 -99999.99
11/19/2022 7:45:00 AM 4.87 40.766 0.441 7.98 2.04 12.26
11/19/2022 8:15:00 AM -99999.99 -179968 -99999.99 -99999.99 -99999.99 -99999.99
11/19/2022 8:30:00 AM -99999.99 -179968 -99999.99 -99999.99 -99999.99 -99999.99
11/19/2022 9:00:00 AM -99999.99 -179968 -99999.99 -99999.99 -99999.99 -99999.99
11/19/2022 9:15:00 AM -99999.99 -179968 -99999.99 -99999.99 -99999.99 -99999.99
11/19/2022 9:30:00 AM -99999.99 -179968 -99999.99 -99999.99 -99999.99 -99999.99
11/19/2022 9:45:00 AM -99999.99 -179968 -99999.99 -99999.99 -99999.99 -99999.99
11/19/2022 10:00:00 AM -99999.99 -179968 -99999.99 -99999.99 -99999.99 -99999.99
11/19/2022 10:15:00 AM -99999.99 -179968 -99999.99 -99999.99 -99999.99 -99999.99
11/19/2022 10:30:00 AM -99999.99 -179968 -99999.99 -99999.99 -99999.99 -99999.99
11/19/2022 10:45:00 AM -99999.99 -179968 -99999.99 -99999.99 -99999.99 -99999.99
11/19/2022 11:00:00 AM -99999.99 -179968 -99999.99 -99999.99 -99999.99 -99999.99
11/19/2022 11:15:00 AM -99999.99 -179968 -99999.99 -99999.99 -99999.99 -99999.99
11/19/2022 11:30:00 AM -99999.99 -179968 -99999.99 -99999.99 -99999.99 -99999.99
11/19/2022 11:45:00 AM -99999.99 -179968 -99999.99 -99999.99 -99999.99 -99999.99
11/19/2022 12:00:00 PM -99999.99 -179968 -99999.99 -99999.99 -99999.99 -99999.99
11/19/2022 1:00:00 PM -99999.99 -179968 -99999.99 -99999.99 -99999.99 -99999.99
11/19/2022 1:15:00 PM -99999.99 -179968 -99999.99 -99999.99 -99999.99 -99999.99
11/19/2022 1:30:00 PM -99999.99 -179968 -99999.99 -99999.99 -99999.99 -99999.99
11/19/2022 1:45:00 PM -99999.99 -179968 -99999.99 -99999.99 -99999.99 -99999.99
11/19/2022 2:15:00 PM -99999.99 -179968 -99999.99 -99999.99 -99999.99 -99999.99
11/19/2022 4:30:00 PM -99999.99 -179968 -99999.99 -99999.99 -99999.99 -99999.99
11/19/2022 4:45:00 PM -99999.99 -179968 -99999.99 -99999.99 -99999.99 -99999.99
11/19/2022 5:00:00 PM -99999.99 -179968 -99999.99 -99999.99 -99999.99 -99999.99
11/20/2022 8:30:00 AM -99999.99 -179968 -99999.99 -99999.99 -99999.99 -99999.99
11/20/2022 8:45:00 AM -99999.99 -179968 -99999.99 -99999.99 -99999.99 -99999.99
11/20/2022 9:00:00 AM -99999.99 -179968 -99999.99 -99999.99 -99999.99 -99999.99
11/20/2022 9:15:00 AM -99999.99 -179968 -99999.99 -99999.99 -99999.99 -99999.99
11/20/2022 9:30:00 AM -99999.99 -179968 -99999.99 -99999.99 -99999.99 -99999.99
11/20/2022 9:45:00 AM -99999.99 -179968 -99999.99 -99999.99 -99999.99 -99999.99
11/20/2022 10:15:00 AM -99999.99 -179968 -99999.99 -99999.99 -99999.99 -99999.99
11/20/2022 10:30:00 AM -99999.99 -179968 -99999.99 -99999.99 -99999.99 -99999.99
11/20/2022 10:45:00 AM -99999.99 -179968 -99999.99 -99999.99 -99999.99 -99999.99
11/20/2022 11:00:00 AM -99999.99 -179968 -99999.99 -99999.99 -99999.99 -99999.99
11/20/2022 11:15:00 AM -99999.99 -179968 -99999.99 -99999.99 -99999.99 -99999.99
11/20/2022 11:30:00 AM -99999.99 -179968 -99999.99 -99999.99 -99999.99 -99999.99
11/20/2022 11:45:00 AM -99999.99 -179968 -99999.99 -99999.99 -99999.99 -99999.99
11/20/2022 12:15:00 PM -99999.99 -179968 -99999.99 -99999.99 -99999.99 -99999.99
11/20/2022 12:30:00 PM -99999.99 -179968 -99999.99 -99999.99 -99999.99 -99999.99
11/20/2022 12:45:00 PM -99999.99 -179968 -99999.99 -99999.99 -99999.99 -99999.99
11/20/2022 1:00:00 PM -99999.99 -179968 -99999.99 -99999.99 -99999.99 -99999.99
11/20/2022 1:15:00 PM -99999.99 -179968 -99999.99 -99999.99 -99999.99 -99999.99
11/20/2022 1:30:00 PM -99999.99 -179968 -99999.99 -99999.99 -99999.99 -99999.99
11/20/2022 1:45:00 PM -99999.99 -179968 -99999.99 -99999.99 -99999.99 -99999.99
11/20/2022 2:00:00 PM -99999.99 -179968 -99999.99 -99999.99 -99999.99 -99999.99
11/20/2022 4:30:00 PM -99999.99 -179968 -99999.99 -99999.99 -99999.99 -99999.99
11/21/2022 8:15:00 AM -99999.99 -179968 -99999.99 -99999.99 -99999.99 -99999.99
11/21/2022 8:30:00 AM -99999.99 -179968 -99999.99 -99999.99 -99999.99 -99999.99
11/21/2022 8:45:00 AM -99999.99 -179968 -99999.99 -99999.99 -99999.99 -99999.99
11/21/2022 9:00:00 AM -99999.99 -179968 -99999.99 -99999.99 -99999.99 -99999.99
11/21/2022 9:15:00 AM -99999.99 -179968 -99999.99 -99999.99 -99999.99 -99999.99
11/21/2022 9:30:00 AM -99999.99 -179968 -99999.99 -99999.99 -99999.99 -99999.99
11/21/2022 9:45:00 AM -99999.99 -179968 -99999.99 -99999.99 -99999.99 -99999.99
11/21/2022 10:00:00 AM -99999.99 -179968 -99999.99 -99999.99 -99999.99 -99999.99
11/21/2022 10:15:00 AM -99999.99 -179968 -99999.99 -99999.99 -99999.99 -99999.99
11/21/2022 10:30:00 AM -99999.99 -179968 -99999.99 -99999.99 -99999.99 -99999.99
11/21/2022 10:45:00 AM -99999.99 -179968 -99999.99 -99999.99 -99999.99 -99999.99
11/21/2022 11:00:00 AM -99999.99 -179968 -99999.99 -99999.99 -99999.99 -99999.99
11/21/2022 11:15:00 AM -99999.99 -179968 -99999.99 -99999.99 -99999.99 -99999.99
11/21/2022 11:30:00 AM -99999.99 -179968 -99999.99 -99999.99 -99999.99 -99999.99
11/21/2022 11:45:00 AM -99999.99 -179968 -99999.99 -99999.99 -99999.99 -99999.99
11/21/2022 12:00:00 PM -99999.99 -179968 -99999.99 -99999.99 -99999.99 -99999.99
11/21/2022 12:15:00 PM -99999.99 -179968 -99999.99 -99999.99 -99999.99 -99999.99
11/21/2022 12:30:00 PM -99999.99 -179968 -99999.99 -99999.99 -99999.99 -99999.99
11/21/2022 12:45:00 PM -99999.99 -179968 -99999.99 -99999.99 -99999.99 -99999.99
11/21/2022 1:00:00 PM -99999.99 -179968 -99999.99 -99999.99 -99999.99 -99999.99
11/21/2022 1:15:00 PM -99999.99 -179968 -99999.99 -99999.99 -99999.99 -99999.99
11/21/2022 1:30:00 PM -99999.99 -179968 -99999.99 -99999.99 -99999.99 -99999.99
11/21/2022 2:00:00 PM -99999.99 -179968 -99999.99 -99999.99 -99999.99 -99999.99
11/21/2022 2:30:00 PM -99999.99 -179968 -99999.99 -99999.99 -99999.99 -99999.99
11/21/2022 4:30:00 PM -99999.99 -179968 -99999.99 -99999.99 -99999.99 -99999.99
11/22/2022 7:15:00 AM -99999.99 -179968 -99999.99 -99999.99 -99999.99 -99999.99
11/22/2022 7:30:00 AM -99999.99 -179968 -99999.99 -99999.99 -99999.99 -99999.99
11/22/2022 7:45:00 AM -99999.99 -179968 -99999.99 -99999.99 -99999.99 -99999.99
11/22/2022 8:00:00 AM -99999.99 -179968 -99999.99 -99999.99 -99999.99 -99999.99
11/22/2022 8:15:00 AM -99999.99 -179968 -99999.99 -99999.99 -99999.99 -99999.99
11/22/2022 8:30:00 AM -99999.99 -179968 -99999.99 -99999.99 -99999.99 -99999.99
11/22/2022 8:45:00 AM -99999.99 -179968 -99999.99 -99999.99 -99999.99 -99999.99
11/22/2022 9:00:00 AM -99999.99 -179968 -99999.99 -99999.99 -99999.99 -99999.99
11/22/2022 9:15:00 AM -99999.99 -179968 -99999.99 -99999.99 -99999.99 -99999.99
11/22/2022 9:30:00 AM -99999.99 -179968 -99999.99 -99999.99 -99999.99 -99999.99
11/22/2022 9:45:00 AM -99999.99 -179968 -99999.99 -99999.99 -99999.99 -99999.99
11/22/2022 10:00:00 AM -99999.99 -179968 -99999.99 -99999.99 -99999.99 -99999.99
11/22/2022 10:15:00 AM -99999.99 -179968 -99999.99 -99999.99 -99999.99 -99999.99
11/22/2022 10:30:00 AM -99999.99 -179968 -99999.99 -99999.99 -99999.99 -99999.99
11/22/2022 10:45:00 AM -99999.99 -179968 -99999.99 -99999.99 -99999.99 -99999.99
11/22/2022 11:00:00 AM -99999.99 -179968 -99999.99 -99999.99 -99999.99 -99999.99
11/22/2022 11:15:00 AM -99999.99 -179968 -99999.99 -99999.99 -99999.99 -99999.99
11/22/2022 11:30:00 AM -99999.99 -179968 -99999.99 -99999.99 -99999.99 -99999.99
11/22/2022 11:45:00 AM -99999.99 -179968 -99999.99 -99999.99 -99999.99 -99999.99
11/22/2022 12:00:00 PM -99999.99 -179968 -99999.99 -99999.99 -99999.99 -99999.99
11/22/2022 12:15:00 PM -99999.99 -179968 -99999.99 -99999.99 -99999.99 -99999.99
11/22/2022 12:30:00 PM -99999.99 -179968 -99999.99 -99999.99 -99999.99 -99999.99
11/22/2022 12:45:00 PM -99999.99 -179968 -99999.99 -99999.99 -99999.99 -99999.99
11/22/2022 1:00:00 PM -99999.99 -179968 -99999.99 -99999.99 -99999.99 -99999.99
11/22/2022 1:15:00 PM -99999.99 -179968 -99999.99 -99999.99 -99999.99 -99999.99
11/22/2022 1:30:00 PM -99999.99 -179968 -99999.99 -99999.99 -99999.99 -99999.99
11/22/2022 1:45:00 PM -99999.99 -179968 -99999.99 -99999.99 -99999.99 -99999.99
11/22/2022 2:00:00 PM -99999.99 -179968 -99999.99 -99999.99 -99999.99 -99999.99
11/22/2022 2:15:00 PM -99999.99 -179968 -99999.99 -99999.99 -99999.99 -99999.99
11/22/2022 4:30:00 PM -99999.99 -179968 -99999.99 -99999.99 -99999.99 -99999.99
11/22/2022 4:45:00 PM -99999.99 -179968 -99999.99 -99999.99 -99999.99 -99999.99
11/23/2022 7:15:00 AM -99999.99 -179968 -99999.99 -99999.99 -99999.99 -99999.99
11/23/2022 7:30:00 AM -99999.99 -179968 -99999.99 -99999.99 -99999.99 -99999.99
11/23/2022 7:45:00 AM -99999.99 -179968 -99999.99 -99999.99 -99999.99 -99999.99
11/23/2022 8:00:00 AM -99999.99 -179968 -99999.99 -99999.99 -99999.99 -99999.99
11/23/2022 8:15:00 AM -99999.99 -179968 -99999.99 -99999.99 -99999.99 -99999.99
11/23/2022 8:30:00 AM -99999.99 -179968 -99999.99 -99999.99 -99999.99 -99999.99
11/23/2022 8:45:00 AM -99999.99 -179968 -99999.99 -99999.99 -99999.99 -99999.99
11/23/2022 9:00:00 AM -99999.99 -179968 -99999.99 -99999.99 -99999.99 -99999.99
11/23/2022 9:15:00 AM -99999.99 -179968 -99999.99 -99999.99 -99999.99 -99999.99
11/23/2022 9:30:00 AM -99999.99 -179968 -99999.99 -99999.99 -99999.99 -99999.99
11/23/2022 9:45:00 AM -99999.99 -179968 -99999.99 -99999.99 -99999.99 -99999.99
11/23/2022 10:00:00 AM -99999.99 -179968 -99999.99 -99999.99 -99999.99 -99999.99
11/23/2022 10:15:00 AM -99999.99 -179968 -99999.99 -99999.99 -99999.99 -99999.99
11/23/2022 10:30:00 AM -99999.99 -179968 -99999.99 -99999.99 -99999.99 -99999.99
11/23/2022 10:45:00 AM -99999.99 -179968 -99999.99 -99999.99 -99999.99 -99999.99
11/23/2022 11:00:00 AM -99999.99 -179968 -99999.99 -99999.99 -99999.99 -99999.99
11/23/2022 11:15:00 AM -99999.99 -179968 -99999.99 -99999.99 -99999.99 -99999.99
11/23/2022 11:30:00 AM -99999.99 -179968 -99999.99 -99999.99 -99999.99 -99999.99
11/23/2022 12:00:00 PM -99999.99 -179968 -99999.99 -99999.99 -99999.99 -99999.99
11/23/2022 12:15:00 PM -99999.99 -179968 -99999.99 -99999.99 -99999.99 -99999.99
11/23/2022 12:30:00 PM -99999.99 -179968 -99999.99 -99999.99 -99999.99 -99999.99
11/23/2022 12:45:00 PM -99999.99 -179968 -99999.99 -99999.99 -99999.99 -99999.99
11/23/2022 1:00:00 PM -99999.99 -179968 -99999.99 -99999.99 -99999.99 -99999.99
11/23/2022 1:15:00 PM -99999.99 -179968 -99999.99 -99999.99 -99999.99 -99999.99
11/23/2022 1:30:00 PM -99999.99 -179968 -99999.99 -99999.99 -99999.99 -99999.99
11/23/2022 1:45:00 PM -99999.99 -179968 -99999.99 -99999.99 -99999.99 -99999.99
11/23/2022 2:00:00 PM -99999.99 -179968 -99999.99 -99999.99 -99999.99 -99999.99
11/23/2022 2:15:00 PM -99999.99 -179968 -99999.99 -99999.99 -99999.99 -99999.99
11/23/2022 4:30:00 PM -99999.99 -179968 -99999.99 -99999.99 -99999.99 -99999.99
12/1/2022 1:15:00 PM 5.33 41.594 0.401 7.69 16.53 12.63
12/1/2022 1:30:00 PM 5.34 41.612 0.401 7.86 5.48 12.62
12/1/2022 1:45:00 PM 5.36 41.648 0.401 7.89 5.63 12.63
12/1/2022 2:00:00 PM 5.37 41.666 0.401 7.92 5.53 12.65
12/1/2022 2:15:00 PM 5.39 41.702 0.401 7.96 5.56 12.66
12/1/2022 2:30:00 PM 5.4 41.72 0.401 7.98 5.69 12.68
12/1/2022 2:45:00 PM 5.41 41.738 0.401 8.02 5.58 12.69
12/1/2022 3:00:00 PM 5.41 41.738 0.401 8.04 5.8 12.69
12/1/2022 3:15:00 PM 5.4 41.72 0.401 8.04 5.9 12.71
12/1/2022 3:30:00 PM 5.38 41.684 0.401 8.05 6.22 12.74
12/1/2022 3:45:00 PM 5.37 41.666 0.401 8.04 5.77 12.75
12/1/2022 4:00:00 PM 5.34 41.612 0.401 8.05 5.58 12.77
12/1/2022 4:15:00 PM 5.32 41.576 0.401 8.06 6.36 12.79
12/1/2022 4:30:00 PM 5.3 41.54 0.4 8.06 6.03 12.81
12/1/2022 4:45:00 PM 5.27 41.486 0.4 8.06 6.05 12.83
12/1/2022 5:00:00 PM 5.25 41.45 0.4 8.09 5.76 12.84
12/1/2022 5:15:00 PM 5.23 41.414 0.399 8.09 5.91 12.86
12/1/2022 5:30:00 PM 5.21 41.378 0.399 8.08 6.16 12.88
12/1/2022 5:45:00 PM 5.2 41.36 0.398 8.08 5.94 12.9
12/1/2022 6:00:00 PM 5.18 41.324 0.397 8.09 6.1 12.91
12/1/2022 6:15:00 PM 5.17 41.306 0.396 8.13 6.03 12.91
12/1/2022 6:30:00 PM 5.16 41.288 0.396 8.12 5.83 12.94
12/1/2022 6:45:00 PM 5.15 41.27 0.395 8.13 6.45 12.96
12/1/2022 7:00:00 PM 5.14 41.252 0.394 8.12 6.26 12.96
12/1/2022 7:15:00 PM 5.14 41.252 0.393 8.11 5.79 12.97
12/1/2022 7:30:00 PM 5.13 41.234 0.393 8.1 6.39 12.98
12/1/2022 7:45:00 PM 5.12 41.216 0.392 8.11 6.1 12.99
12/1/2022 8:00:00 PM 5.1 41.18 0.392 8.09 6.1 13
12/1/2022 8:15:00 PM 5.09 41.162 0.392 8.09 5.7 12.99
12/1/2022 8:30:00 PM 5.07 41.126 0.392 8.08 6.17 12.99
12/1/2022 8:45:00 PM 5.05 41.09 0.392 8.09 5.54 13
12/1/2022 9:00:00 PM 5.02 41.036 0.392 8.08 5.94 12.99
12/1/2022 9:15:00 PM 5 41 0.393 8.1 5.46 12.99
12/1/2022 9:30:00 PM 4.97 40.946 0.393 8.07 5.78 12.99
12/1/2022 9:45:00 PM 4.94 40.892 0.393 8.09 6.15 12.99
12/1/2022 10:00:00 PM 4.92 40.856 0.394 8.09 5.57 12.98
12/1/2022 10:15:00 PM 4.9 40.82 0.394 8.09 5.68 12.97
12/1/2022 10:30:00 PM 4.87 40.766 0.394 8.08 5.71 12.95
12/1/2022 10:45:00 PM 4.84 40.712 0.395 8.07 6.09 12.94
12/1/2022 11:00:00 PM 4.8 40.64 0.395 8.06 5.53 12.93
12/1/2022 11:15:00 PM 4.78 40.604 0.395 8.07 5.43 12.91
12/1/2022 11:30:00 PM 4.73 40.514 0.396 8.05 5.82 12.9
12/1/2022 11:45:00 PM 4.7 40.46 0.396 8.03 5.17 12.89
12/2/2022 12:00:00 AM 4.68 40.424 0.396 8.04 5.55 12.85
12/2/2022 12:15:00 AM 4.65 40.37 0.397 8.04 5.67 12.84
12/2/2022 12:30:00 AM 4.62 40.316 0.397 8.02 5.67 12.83
12/2/2022 12:45:00 AM 4.59 40.262 0.397 8.01 5.9 12.81
12/2/2022 1:00:00 AM 4.55 40.19 0.397 7.99 5.45 12.81
12/2/2022 1:15:00 AM 4.51 40.118 0.397 8 5.73 12.81
12/2/2022 1:30:00 AM 4.49 40.082 0.397 8.01 5.2 12.79
12/2/2022 1:45:00 AM 4.45 40.01 0.397 8 5.61 12.78
12/2/2022 2:00:00 AM 4.42 39.956 0.397 7.97 5.2 12.78
12/2/2022 2:15:00 AM 4.37 39.866 0.397 7.97 5.49 12.78
12/2/2022 2:30:00 AM 4.35 39.83 0.397 7.97 5.45 12.77
12/2/2022 2:45:00 AM 4.32 39.776 0.397 7.98 5.86 12.76
12/2/2022 3:00:00 AM 4.29 39.722 0.397 7.98 5.53 12.75
12/2/2022 3:15:00 AM 4.24 39.632 0.396 7.98 5.53 12.76
12/2/2022 3:30:00 AM 4.22 39.596 0.396 7.98 5.57 12.73
12/2/2022 3:45:00 AM 4.17 39.506 0.397 7.97 5.63 12.74
12/2/2022 4:00:00 AM 4.14 39.452 0.396 7.97 5.5 12.75
12/2/2022 4:15:00 AM 4.06 39.308 0.397 7.97 5.59 12.75
12/2/2022 4:30:00 AM 4.03 39.254 0.397 7.96 5.77 12.78
12/2/2022 4:45:00 AM 4 39.2 0.397 7.98 6.04 12.76
12/2/2022 5:00:00 AM 3.95 39.11 0.397 7.98 5.25 12.77
12/2/2022 5:15:00 AM 3.91 39.038 0.398 7.97 6.04 12.76
12/2/2022 5:30:00 AM 3.88 38.984 0.398 7.97 5.52 12.79
12/2/2022 5:45:00 AM 3.84 38.912 0.398 7.99 5.54 12.78
12/2/2022 6:00:00 AM 3.77 38.786 0.399 7.99 5.8 12.8
12/2/2022 6:15:00 AM 3.76 38.768 0.399 7.97 5.6 12.79
12/2/2022 6:30:00 AM 3.69 38.642 0.399 7.98 5.47 12.81
12/2/2022 6:45:00 AM 3.66 38.588 0.4 8 5.37 12.82
12/2/2022 7:00:00 AM 3.62 38.516 0.4 8 5.71 12.83
12/2/2022 7:15:00 AM 3.57 38.426 0.4 7.99 5.41 12.84
12/2/2022 7:30:00 AM 3.51 38.318 0.4 7.97 5.82 12.88
12/2/2022 7:45:00 AM 3.49 38.282 0.401 7.98 5.31 12.89
12/2/2022 8:00:00 AM 3.48 38.264 0.401 8.01 5.48 12.9
12/2/2022 8:15:00 AM 3.45 38.21 0.401 7.99 5.83 12.95
12/2/2022 8:30:00 AM 3.44 38.192 0.401 7.97 5.14 12.97
12/2/2022 8:45:00 AM 3.43 38.174 0.401 7.96 5.33 13.01
12/2/2022 9:00:00 AM 3.43 38.174 0.401 8.01 5.28 13.04
12/2/2022 9:15:00 AM 3.44 38.192 0.401 7.99 5.27 13.06
12/2/2022 9:30:00 AM 3.46 38.228 0.401 8 4.99 13.09
12/2/2022 9:45:00 AM 3.52 38.336 0.401 7.99 5.17 13.12
12/2/2022 10:00:00 AM 3.54 38.372 0.401 8.01 4.87 13.13
12/2/2022 10:15:00 AM 3.57 38.426 0.401 8.01 4.99 13.13
12/2/2022 10:30:00 AM 3.61 38.498 0.402 8.01 4.62 13.13
12/2/2022 10:45:00 AM 3.69 38.642 0.402 8.03 5.51 13.1
12/2/2022 11:00:00 AM 3.78 38.804 0.402 8.05 4.72 13.08
12/2/2022 11:15:00 AM 3.75 38.75 0.403 8.05 7.55 13.08
12/2/2022 11:30:00 AM 3.76 38.768 0.403 8.06 8.7 13.12
12/2/2022 11:45:00 AM 3.84 38.912 0.404 8.07 11.24 13.09
12/2/2022 12:00:00 PM 3.79 38.822 0.404 8.04 8.03 13.13
12/2/2022 12:15:00 PM 3.85 38.93 0.405 8.04 23.38 13.09
12/2/2022 12:30:00 PM 3.81 38.858 0.406 8.04 14.23 13.14
12/2/2022 12:45:00 PM 3.84 38.912 0.406 8.04 5.74 13.13
12/2/2022 1:00:00 PM 3.85 38.93 0.407 8.03 8.4 13.12
12/2/2022 1:15:00 PM 3.86 38.948 0.408 8.03 11 13.1
12/2/2022 1:30:00 PM 3.84 38.912 0.409 8.02 11.18 13.1
12/2/2022 1:45:00 PM 3.86 38.948 0.409 8.02 12.69 13.08
12/2/2022 2:00:00 PM 3.82 38.876 0.41 8.01 11.94 13.1
12/2/2022 2:15:00 PM 3.83 38.894 0.411 8.01 12.03 13.1
12/2/2022 2:30:00 PM 3.82 38.876 0.412 7.99 5.64 13.1
12/2/2022 2:45:00 PM 3.84 38.912 0.412 8 7.18 13.09
12/2/2022 3:00:00 PM 3.85 38.93 0.413 8.01 5.63 13.08
12/2/2022 3:15:00 PM 3.88 38.984 0.413 8.03 4.63 13.1
12/2/2022 3:30:00 PM 3.91 39.038 0.414 8.03 3.35 13.11
12/2/2022 3:45:00 PM 3.91 39.038 0.415 8.02 2.65 13.09
12/2/2022 4:00:00 PM 3.92 39.056 0.415 8.03 3.42 13.1
12/2/2022 4:15:00 PM 3.93 39.074 0.416 8.02 3.08 13.08
12/2/2022 4:30:00 PM 3.94 39.092 0.416 8.01 6.11 13.08
12/2/2022 4:45:00 PM 3.95 39.11 0.417 8.01 2.86 13.09
12/2/2022 5:00:00 PM 3.96 39.128 0.418 8.03 2.9 13.09
12/2/2022 5:15:00 PM 3.96 39.128 0.418 8.05 2.12 13.12
12/2/2022 5:30:00 PM 3.95 39.11 0.419 8.05 2.12 13.16
12/2/2022 5:45:00 PM 3.93 39.074 0.419 8.05 2.08 13.19
12/2/2022 6:00:00 PM 3.91 39.038 0.42 8.05 1.97 13.23
12/2/2022 6:15:00 PM 3.91 39.038 0.421 8.06 2.16 13.26
12/2/2022 6:30:00 PM 3.92 39.056 0.421 8.07 1.98 13.29
12/2/2022 6:45:00 PM 3.95 39.11 0.421 8.08 4.23 13.3
12/2/2022 7:00:00 PM 3.96 39.128 0.421 8.07 3.41 13.35
12/2/2022 7:15:00 PM 3.97 39.146 0.422 8.08 2.26 13.37
12/2/2022 7:30:00 PM 4 39.2 0.422 8.11 2.46 13.41
12/2/2022 7:45:00 PM 4.02 39.236 0.422 8.1 1.94 13.41
12/2/2022 8:00:00 PM 4.05 39.29 0.422 8.1 2.27 13.43
12/2/2022 8:15:00 PM 4.09 39.362 0.422 8.1 2.17 13.44
12/2/2022 8:30:00 PM 4.08 39.344 0.422 8.09 1.85 13.46
12/2/2022 8:45:00 PM 4.1 39.38 0.422 8.08 1.86 13.46
12/2/2022 9:00:00 PM 4.13 39.434 0.422 8.09 1.84 13.44
12/2/2022 9:15:00 PM 4.16 39.488 0.422 8.08 1.86 13.46
12/2/2022 9:30:00 PM 4.2 39.56 0.422 8.07 1.77 13.46
12/2/2022 9:45:00 PM 4.25 39.65 0.422 8.08 1.86 13.43
12/2/2022 10:00:00 PM 4.31 39.758 0.423 8.09 1.83 13.45
12/2/2022 10:15:00 PM 4.34 39.812 0.422 8.1 1.75 13.42
12/2/2022 10:30:00 PM 4.39 39.902 0.422 8.1 1.86 13.45
12/2/2022 10:45:00 PM 4.45 40.01 0.422 8.12 1.84 13.41
12/2/2022 11:00:00 PM 4.47 40.046 0.422 8.13 1.83 13.42
12/2/2022 11:15:00 PM 4.51 40.118 0.422 8.12 1.98 13.41
12/2/2022 11:30:00 PM 4.52 40.136 0.422 8.14 1.82 13.39
12/2/2022 11:45:00 PM 4.55 40.19 0.423 8.14 1.82 13.36
12/3/2022 12:00:00 AM 4.56 40.208 0.423 8.15 1.83 13.35
12/3/2022 12:15:00 AM 4.57 40.226 0.423 8.15 1.75 13.34
12/3/2022 12:30:00 AM 4.58 40.244 0.423 8.17 1.8 13.32
12/3/2022 12:45:00 AM 4.59 40.262 0.424 8.13 1.86 13.3
12/3/2022 1:00:00 AM 4.61 40.298 0.424 8.12 1.74 13.28
12/3/2022 1:15:00 AM 4.63 40.334 0.424 8.11 1.74 13.25
12/3/2022 1:30:00 AM 4.64 40.352 0.425 8.12 1.74 13.21
12/3/2022 1:45:00 AM 4.66 40.388 0.425 8.12 1.72 13.19
12/3/2022 2:00:00 AM 4.67 40.406 0.426 8.11 1.79 13.15
12/3/2022 2:15:00 AM 4.68 40.424 0.426 8.11 1.73 13.12
12/3/2022 2:30:00 AM 4.69 40.442 0.426 8.09 1.72 13.07
12/3/2022 2:45:00 AM 4.71 40.478 0.427 8.09 1.77 13.05
12/3/2022 3:00:00 AM 4.72 40.496 0.427 8.07 1.73 13.01
12/3/2022 3:15:00 AM 4.73 40.514 0.427 8.08 1.68 12.97
12/3/2022 3:30:00 AM 4.75 40.55 0.427 8.09 1.71 12.94
12/3/2022 3:45:00 AM 4.76 40.568 0.428 8.06 1.74 12.9
12/3/2022 4:00:00 AM 4.78 40.604 0.428 8.06 1.79 12.87
12/3/2022 4:15:00 AM 4.79 40.622 0.428 8.06 1.75 12.83
12/3/2022 4:30:00 AM 4.8 40.64 0.429 8.05 1.76 12.8
12/3/2022 4:45:00 AM 4.82 40.676 0.429 8.03 1.73 12.76
12/3/2022 5:00:00 AM 4.85 40.73 0.43 8.04 1.67 12.73
12/3/2022 5:15:00 AM 4.88 40.784 0.43 8.03 1.77 12.69
12/3/2022 5:30:00 AM 4.9 40.82 0.431 8.03 1.62 12.66
12/3/2022 5:45:00 AM 4.94 40.892 0.431 8.05 1.7 12.63
12/3/2022 6:00:00 AM 4.97 40.946 0.432 8.01 1.75 12.61
12/3/2022 6:15:00 AM 4.99 40.982 0.433 8 1.68 12.58
12/3/2022 6:30:00 AM 5 41 0.433 8.02 1.75 12.57
12/3/2022 6:45:00 AM 5.02 41.036 0.434 8.01 1.81 12.54
12/3/2022 7:00:00 AM 5.04 41.072 0.434 8 2.18 12.52
12/3/2022 7:15:00 AM 5.07 41.126 0.434 7.99 2.78 12.49
12/3/2022 7:30:00 AM 5.08 41.144 0.435 8.01 3.04 12.47
12/3/2022 7:45:00 AM 5.1 41.18 0.435 7.99 2.17 12.45
12/3/2022 8:00:00 AM 5.11 41.198 0.436 7.96 2.3 12.45
12/3/2022 8:15:00 AM 5.13 41.234 0.436 7.96 4.53 12.45
12/3/2022 8:30:00 AM 5.16 41.288 0.436 8 7 12.42
12/3/2022 8:45:00 AM 5.17 41.306 0.437 7.96 7.97 12.41
12/3/2022 9:00:00 AM 5.17 41.306 0.437 7.98 8.17 12.41
12/3/2022 9:15:00 AM 5.2 41.36 0.437 7.97 7 12.38
12/3/2022 9:30:00 AM 5.2 41.36 0.438 7.96 6.26 12.37
12/3/2022 9:45:00 AM 5.21 41.378 0.438 7.96 3.48 12.35
12/3/2022 10:00:00 AM 5.23 41.414 0.438 7.96 3.83 12.35
12/3/2022 10:15:00 AM 5.26 41.468 0.438 7.97 5.53 12.33
12/3/2022 10:30:00 AM 5.29 41.522 0.439 7.96 3.92 12.33
12/3/2022 10:45:00 AM 5.31 41.558 0.439 7.98 3.43 12.31
12/3/2022 11:00:00 AM 5.35 41.63 0.439 8.01 3.19 12.3
12/3/2022 11:15:00 AM 5.38 41.684 0.44 8 3.26 12.29
12/3/2022 11:30:00 AM 5.43 41.774 0.44 7.99 4.19 12.32
12/3/2022 11:45:00 AM 5.47 41.846 0.44 8 4.38 12.34
12/3/2022 12:00:00 PM 5.56 42.008 0.441 8.01 5.91 12.4
12/3/2022 12:15:00 PM 5.62 42.116 0.441 8 4.1 12.39
12/3/2022 12:30:00 PM 5.66 42.188 0.441 7.98 2.72 12.38
12/3/2022 12:45:00 PM 5.71 42.278 0.441 7.98 3.19 12.37
12/3/2022 1:00:00 PM 5.76 42.368 0.442 7.99 2.63 12.31
12/3/2022 1:15:00 PM 5.82 42.476 0.442 8 2.27 12.29
12/3/2022 1:30:00 PM 5.89 42.602 0.442 7.98 2.19 12.32
12/3/2022 1:45:00 PM 5.95 42.71 0.442 7.98 2.1 12.3
12/3/2022 2:00:00 PM 5.96 42.728 0.442 8.01 1.72 12.27
12/3/2022 2:15:00 PM 5.99 42.782 0.442 7.98 1.64 12.22
12/3/2022 2:30:00 PM 6.03 42.854 0.442 7.98 1.89 12.2
12/3/2022 2:45:00 PM 6.12 43.016 0.442 7.97 2.75 12.1
12/3/2022 3:00:00 PM 6.15 43.07 0.442 7.96 9.89 12.07
12/3/2022 3:15:00 PM 6.14 43.052 0.442 7.94 24.73 12.08
12/3/2022 3:30:00 PM 6.19 43.142 0.442 7.96 1.75 12.04
12/3/2022 3:45:00 PM 6.24 43.232 0.442 7.95 2.8 12
12/3/2022 4:00:00 PM 6.3 43.34 0.443 7.93 9.18 11.9
12/3/2022 4:15:00 PM 6.31 43.358 0.443 7.94 1.97 11.99
12/3/2022 4:30:00 PM 6.36 43.448 0.444 7.92 1.82 11.99
12/3/2022 4:45:00 PM 6.4 43.52 0.444 7.94 1.75 11.99
12/3/2022 5:00:00 PM 6.46 43.628 0.445 7.95 1.87 11.98
12/3/2022 5:15:00 PM 6.51 43.718 0.447 7.94 1.96 11.97
12/3/2022 5:30:00 PM 6.56 43.808 0.448 7.95 1.49 11.97
12/3/2022 5:45:00 PM 6.66 43.988 0.451 7.96 2.33 12
12/3/2022 6:00:00 PM 6.71 44.078 0.452 7.98 2.09 12.01
12/3/2022 6:15:00 PM 6.74 44.132 0.453 7.99 2.61 12.04
12/3/2022 6:30:00 PM 6.77 44.186 0.453 7.99 1.96 12.06
12/3/2022 6:45:00 PM 6.79 44.222 0.453 8 1.61 12.07
12/3/2022 7:00:00 PM 6.82 44.276 0.454 8.01 2 12.07
12/3/2022 7:15:00 PM 6.88 44.384 0.456 8.02 2.08 12.08
12/3/2022 7:30:00 PM 6.96 44.528 0.457 8.04 2.35 12.14
12/3/2022 7:45:00 PM 7.01 44.618 0.458 8.05 2.25 12.15
12/3/2022 8:00:00 PM 7.13 44.834 0.46 8.07 2.43 12.23
12/3/2022 8:15:00 PM 7.2 44.96 0.461 8.09 2.41 12.27
12/3/2022 8:30:00 PM 7.26 45.068 0.463 8.1 2.53 12.27
12/3/2022 8:45:00 PM 7.29 45.122 0.464 8.1 2.57 12.25
12/3/2022 9:00:00 PM 7.32 45.176 0.465 8.13 2.4 12.21
12/3/2022 9:15:00 PM 7.35 45.23 0.465 8.1 2.02 12.17
12/3/2022 9:30:00 PM 7.36 45.248 0.465 8.11 1.98 12.12
12/3/2022 9:45:00 PM 7.36 45.248 0.464 8.12 2.01 12.08
12/3/2022 10:00:00 PM 7.36 45.248 0.464 8.11 1.86 12.04
12/3/2022 10:15:00 PM 7.35 45.23 0.462 8.11 1.94 12
12/3/2022 10:30:00 PM 7.33 45.194 0.461 8.09 2.01 11.97
12/3/2022 10:45:00 PM 7.3 45.14 0.459 8.07 2.03 11.95
12/3/2022 11:00:00 PM 7.26 45.068 0.457 8.08 1.95 11.93
12/3/2022 11:15:00 PM 7.22 44.996 0.455 8.07 1.68 11.91
12/3/2022 11:30:00 PM 7.18 44.924 0.454 8.08 1.62 11.91
12/3/2022 11:45:00 PM 7.13 44.834 0.449 8.08 1.89 11.89
12/4/2022 12:00:00 AM 7.08 44.744 0.448 8.06 2.02 11.88
12/4/2022 12:15:00 AM 7.03 44.654 0.445 8.04 2.35 11.87
12/4/2022 12:30:00 AM 6.99 44.582 0.444 8.04 2.06 11.86
12/4/2022 12:45:00 AM 6.92 44.456 0.442 8.04 2.3 11.86
12/4/2022 1:00:00 AM 6.88 44.384 0.441 8.03 2.03 11.85
12/4/2022 1:15:00 AM 6.83 44.294 0.438 8.03 1.78 11.84
12/4/2022 1:30:00 AM 6.78 44.204 0.435 8.01 2.37 11.84
12/4/2022 1:45:00 AM 6.73 44.114 0.433 8.01 2.71 11.83
12/4/2022 2:00:00 AM 6.7 44.06 0.432 8.04 2.92 11.82
12/4/2022 2:15:00 AM 6.65 43.97 0.428 8.04 2.82 11.82
12/4/2022 2:30:00 AM 6.61 43.898 0.426 8.03 2.88 11.81
12/4/2022 2:45:00 AM 6.57 43.826 0.424 8 3.03 11.82
12/4/2022 3:00:00 AM 6.53 43.754 0.422 7.97 2.63 11.81
12/4/2022 3:15:00 AM 6.49 43.682 0.42 7.99 3.29 11.81
12/4/2022 3:30:00 AM 6.46 43.628 0.418 7.96 3.47 11.81
12/4/2022 3:45:00 AM 6.43 43.574 0.418 7.95 2.96 11.81
12/4/2022 4:00:00 AM 6.4 43.52 0.415 8 2.96 11.8
12/4/2022 4:15:00 AM 6.37 43.466 0.413 7.97 3.41 11.79
12/4/2022 4:30:00 AM 6.33 43.394 0.41 8 3.38 11.8
12/4/2022 4:45:00 AM 6.3 43.34 0.409 7.97 2.82 11.79
12/4/2022 5:00:00 AM 6.26 43.268 0.406 7.93 3.11 11.8
12/4/2022 5:15:00 AM 6.23 43.214 0.404 7.91 3.45 11.81
12/4/2022 5:30:00 AM 6.19 43.142 0.403 7.9 2.94 11.82
12/4/2022 5:45:00 AM 6.15 43.07 0.401 7.89 3.05 11.84
12/4/2022 6:00:00 AM 6.12 43.016 0.4 7.9 3.02 11.84
12/4/2022 6:15:00 AM 6.08 42.944 0.399 7.9 2.74 11.85
12/4/2022 6:30:00 AM 6.04 42.872 0.398 7.92 3.46 11.86
12/4/2022 6:45:00 AM 6.01 42.818 0.397 7.9 3.11 11.87
12/4/2022 7:00:00 AM 5.97 42.746 0.397 7.91 3.07 11.87
12/4/2022 7:15:00 AM 5.94 42.692 0.397 7.92 3.41 11.88
12/4/2022 7:30:00 AM 5.9 42.62 0.398 7.92 4.98 11.86
12/4/2022 7:45:00 AM 5.85 42.53 0.398 7.92 10.91 11.85
12/4/2022 8:00:00 AM 5.83 42.494 0.398 7.93 4.2 11.88
12/4/2022 8:15:00 AM 5.81 42.458 0.398 7.94 3.55 11.9
12/4/2022 8:30:00 AM 5.78 42.404 0.398 7.94 3.49 11.96
12/4/2022 8:45:00 AM 5.76 42.368 0.398 7.92 3.11 11.99
12/4/2022 9:00:00 AM 5.75 42.35 0.398 7.91 3.72 12.01
12/4/2022 9:15:00 AM 5.73 42.314 0.397 7.94 3.74 12.04
12/4/2022 9:30:00 AM 5.72 42.296 0.396 7.93 3.37 12.06
12/4/2022 9:45:00 AM 5.71 42.278 0.396 7.92 4.17 12.08
12/4/2022 10:00:00 AM 5.7 42.26 0.395 7.93 3.45 12.09
12/4/2022 10:15:00 AM 5.69 42.242 0.394 7.92 4.52 12.12
12/4/2022 10:30:00 AM 5.69 42.242 0.393 7.92 3.87 12.15
12/4/2022 10:45:00 AM 5.69 42.242 0.392 7.92 3.17 12.16
12/4/2022 11:00:00 AM 5.7 42.26 0.392 7.92 2.7 12.17
12/4/2022 11:15:00 AM 5.7 42.26 0.391 7.95 4.03 12.18
12/4/2022 11:30:00 AM 5.69 42.242 0.391 7.95 4.4 12.19
12/4/2022 11:45:00 AM 5.7 42.26 0.391 7.96 3.26 12.2
12/4/2022 12:00:00 PM 5.7 42.26 0.391 7.94 3.43 12.23
12/4/2022 12:15:00 PM 5.7 42.26 0.391 7.94 4.43 12.24
12/4/2022 12:30:00 PM 5.71 42.278 0.391 7.96 4.54 12.23
12/4/2022 12:45:00 PM 5.7 42.26 0.391 7.98 4.28 12.24
12/4/2022 1:00:00 PM 5.69 42.242 0.391 7.98 3.68 12.25
12/4/2022 1:15:00 PM 5.69 42.242 0.392 7.99 4.83 12.27
12/4/2022 1:30:00 PM 5.69 42.242 0.392 7.98 4.55 12.28
12/4/2022 1:45:00 PM 5.69 42.242 0.393 7.99 4.64 12.28
12/4/2022 2:00:00 PM 5.7 42.26 0.393 7.99 4.13 12.31
12/4/2022 2:15:00 PM 5.71 42.278 0.394 7.99 4.74 12.34
12/4/2022 2:30:00 PM 5.72 42.296 0.395 8 4.22 12.36
12/4/2022 2:45:00 PM 5.73 42.314 0.396 8.02 4.35 12.39
12/4/2022 3:00:00 PM 5.74 42.332 0.396 8 5.48 12.4
12/4/2022 3:15:00 PM 5.74 42.332 0.397 8.01 4.5 12.42
12/4/2022 3:30:00 PM 5.74 42.332 0.396 8.02 4.96 12.43
12/4/2022 3:45:00 PM 5.75 42.35 0.397 8.02 5.36 12.48
12/4/2022 4:00:00 PM 5.75 42.35 0.398 8.05 5.18 12.48
12/4/2022 4:15:00 PM 5.75 42.35 0.398 8.05 5.04 12.52
12/4/2022 4:30:00 PM 5.75 42.35 0.398 8.07 5.33 12.56
12/4/2022 4:45:00 PM 5.74 42.332 0.397 8.07 5.04 12.57
12/4/2022 5:00:00 PM 5.73 42.314 0.397 8.08 4.64 12.57
12/4/2022 5:15:00 PM 5.72 42.296 0.397 8.07 5.06 12.6
12/4/2022 5:30:00 PM 5.7 42.26 0.397 8.06 5.56 12.61
12/4/2022 5:45:00 PM 5.68 42.224 0.397 8.07 5.8 12.63
12/4/2022 6:00:00 PM 5.66 42.188 0.396 8.07 5.33 12.66
12/4/2022 6:15:00 PM 5.63 42.134 0.396 8.08 5.39 12.67
12/4/2022 6:30:00 PM 5.62 42.116 0.396 8.08 5.36 12.7
12/4/2022 6:45:00 PM 5.58 42.044 0.396 8.09 5.25 12.7
12/4/2022 7:00:00 PM 5.56 42.008 0.397 8.09 5.29 12.72
12/4/2022 7:15:00 PM 5.55 41.99 0.397 8.08 5.7 12.74
12/4/2022 7:30:00 PM 5.53 41.954 0.397 8.08 5.13 12.76
12/4/2022 7:45:00 PM 5.51 41.918 0.397 8.13 5.23 12.78
12/4/2022 8:00:00 PM 5.48 41.864 0.397 8.08 5.12 12.79
12/4/2022 8:15:00 PM 5.45 41.81 0.398 8.08 5.32 12.81
12/4/2022 8:30:00 PM 5.44 41.792 0.398 8.09 5.51 12.81
12/4/2022 8:45:00 PM 5.43 41.774 0.398 8.1 5.2 12.83
12/4/2022 9:00:00 PM 5.41 41.738 0.398 8.14 5.66 12.82
12/4/2022 9:15:00 PM 5.37 41.666 0.398 8.15 4.98 12.82
12/4/2022 9:30:00 PM 5.36 41.648 0.398 8.14 4.98 12.83
12/4/2022 9:45:00 PM 5.34 41.612 0.398 8.12 4.78 12.82
12/4/2022 10:00:00 PM 5.31 41.558 0.398 8.12 5.13 12.81
12/4/2022 10:15:00 PM 5.27 41.486 0.398 8.12 4.83 12.8
12/4/2022 10:30:00 PM 5.25 41.45 0.398 8.13 5.05 12.8
12/4/2022 10:45:00 PM 5.22 41.396 0.398 8.12 4.48 12.77
12/4/2022 11:00:00 PM 5.18 41.324 0.397 8.13 4.48 12.76
12/4/2022 11:15:00 PM 5.16 41.288 0.397 8.12 4.78 12.74
12/4/2022 11:30:00 PM 5.1 41.18 0.397 8.09 4.96 12.73
12/4/2022 11:45:00 PM 5.08 41.144 0.397 8.05 4.9 12.7
12/5/2022 12:00:00 AM 5.01 41.018 0.397 8.07 4.87 12.69
12/5/2022 12:15:00 AM 4.98 40.964 0.396 8.1 4.54 12.67
12/5/2022 12:30:00 AM 4.94 40.892 0.396 8.09 4.63 12.65
12/5/2022 12:45:00 AM 4.89 40.802 0.396 8.05 4.2 12.64
12/5/2022 1:00:00 AM 4.84 40.712 0.396 8.06 4.47 12.63
12/5/2022 1:15:00 AM 4.78 40.604 0.397 8.03 4.31 12.63
12/5/2022 1:30:00 AM 4.77 40.586 0.397 8.02 4.37 12.61
12/5/2022 1:45:00 AM 4.71 40.478 0.397 8.03 4.08 12.6
12/5/2022 2:00:00 AM 4.68 40.424 0.398 8.02 4.05 12.59
12/5/2022 2:15:00 AM 4.64 40.352 0.398 8.03 4.19 12.59
12/5/2022 2:30:00 AM 4.58 40.244 0.399 8 3.99 12.58
12/5/2022 2:45:00 AM 4.54 40.172 0.399 8.01 4.1 12.57
12/5/2022 3:00:00 AM 4.5 40.1 0.4 7.99 3.8 12.57
12/5/2022 3:15:00 AM 4.46 40.028 0.4 7.97 3.74 12.56
12/5/2022 3:30:00 AM 4.4 39.92 0.4 7.98 3.64 12.56
12/5/2022 3:45:00 AM 4.36 39.848 0.401 7.98 3.53 12.57
12/5/2022 4:00:00 AM 4.3 39.74 0.401 7.96 3.55 12.59
12/5/2022 4:15:00 AM 4.26 39.668 0.402 7.96 3.73 12.57
12/5/2022 4:30:00 AM 4.2 39.56 0.402 7.96 3.41 12.6
12/5/2022 4:45:00 AM 4.16 39.488 0.402 7.93 3.43 12.61
12/5/2022 5:00:00 AM 4.11 39.398 0.402 7.93 3.61 12.61
12/5/2022 5:15:00 AM 4.06 39.308 0.402 7.95 3.18 12.6
12/5/2022 5:30:00 AM 4 39.2 0.402 7.91 3.33 12.61
12/5/2022 5:45:00 AM 3.94 39.092 0.402 7.94 3.25 12.62
12/5/2022 6:00:00 AM 3.9 39.02 0.402 7.92 3.13 12.63
12/5/2022 6:15:00 AM 3.84 38.912 0.402 7.91 3.32 12.62
12/5/2022 6:30:00 AM 3.79 38.822 0.402 7.89 2.98 12.64
12/5/2022 6:45:00 AM 3.74 38.732 0.402 7.91 2.92 12.66
12/5/2022 7:00:00 AM 3.69 38.642 0.402 7.92 2.91 12.67
12/5/2022 7:15:00 AM 3.65 38.57 0.402 7.9 2.9 12.67
12/5/2022 7:30:00 AM 3.6 38.48 0.403 7.88 3.3 12.69
12/5/2022 7:45:00 AM 3.56 38.408 0.403 7.88 3.03 12.72
12/5/2022 8:00:00 AM 3.52 38.336 0.404 7.88 3.16 12.75
12/5/2022 8:15:00 AM 3.49 38.282 0.404 7.9 2.83 12.76
12/5/2022 8:30:00 AM 3.46 38.228 0.405 7.9 3.1 12.79
12/5/2022 8:45:00 AM 3.46 38.228 0.406 7.89 3.04 12.82
12/5/2022 9:00:00 AM 3.45 38.21 0.406 7.9 2.88 12.87
12/5/2022 9:15:00 AM 3.45 38.21 0.407 7.91 3.01 12.88
12/5/2022 9:30:00 AM 3.45 38.21 0.407 7.9 2.74 12.9
12/5/2022 9:45:00 AM 3.5 38.3 0.408 7.92 3.01 12.92
12/5/2022 10:00:00 AM 3.53 38.354 0.409 7.93 2.95 12.94
12/5/2022 10:15:00 AM 3.57 38.426 0.409 7.92 2.9 12.95
12/5/2022 10:30:00 AM 3.59 38.462 0.41 7.93 2.93 12.95
12/5/2022 10:45:00 AM 3.64 38.552 0.41 7.94 2.98 12.95
12/5/2022 11:00:00 AM 3.69 38.642 0.41 7.93 2.94 12.97
12/5/2022 11:15:00 AM 3.71 38.678 0.411 7.93 2.91 12.97
12/5/2022 11:30:00 AM 3.71 38.678 0.411 7.96 2.89 12.97
12/5/2022 11:45:00 AM 3.7 38.66 0.412 7.97 2.85 12.99
12/5/2022 12:00:00 PM 3.73 38.714 0.412 7.95 2.86 13.01
12/5/2022 12:15:00 PM 3.74 38.732 0.413 7.95 2.72 12.99
12/5/2022 12:30:00 PM 3.76 38.768 0.413 7.97 2.7 13
12/5/2022 12:45:00 PM 3.77 38.786 0.414 7.97 3.33 13.02
12/5/2022 1:00:00 PM 3.8 38.84 0.415 7.97 2.71 13.02
12/5/2022 1:15:00 PM 3.8 38.84 0.415 7.96 2.7 13.04
12/5/2022 1:30:00 PM 3.83 38.894 0.416 7.95 2.74 13.02
12/5/2022 1:45:00 PM 3.82 38.876 0.417 7.95 2.62 13.03
12/5/2022 2:00:00 PM 3.81 38.858 0.417 7.96 2.94 13.02
12/5/2022 2:15:00 PM 3.81 38.858 0.418 7.98 2.7 13.04
12/5/2022 2:30:00 PM 3.83 38.894 0.419 7.98 2.59 13.04
12/5/2022 2:45:00 PM 3.84 38.912 0.42 7.98 2.59 13.02
12/5/2022 3:00:00 PM 3.86 38.948 0.421 7.98 2.52 13.02
12/5/2022 3:15:00 PM 3.88 38.984 0.421 7.96 2.56 13.01
12/5/2022 3:30:00 PM 3.9 39.02 0.422 7.99 2.49 13.03
12/5/2022 3:45:00 PM 3.91 39.038 0.423 7.98 2.65 13.03
12/5/2022 4:00:00 PM 3.92 39.056 0.424 7.99 2.6 13.04
12/5/2022 4:15:00 PM 3.93 39.074 0.425 7.96 2.52 13.04
12/5/2022 4:30:00 PM 3.94 39.092 0.426 7.96 2.71 13.05
12/5/2022 4:45:00 PM 3.93 39.074 0.427 7.97 2.43 13.05
12/5/2022 5:00:00 PM 3.92 39.056 0.428 7.98 2.39 13.09
12/5/2022 5:15:00 PM 3.91 39.038 0.428 8 2.5 13.12
12/5/2022 5:30:00 PM 3.9 39.02 0.429 8.01 2.39 13.14
12/5/2022 5:45:00 PM 3.89 39.002 0.43 8.02 2.41 13.18
12/5/2022 6:00:00 PM 3.87 38.966 0.43 8.02 2.3 13.22
12/5/2022 6:15:00 PM 3.86 38.948 0.431 8.02 2.55 13.23
12/5/2022 6:30:00 PM 3.87 38.966 0.431 8.03 2.24 13.29
12/5/2022 6:45:00 PM 3.87 38.966 0.431 8.04 2.65 13.32
12/5/2022 7:00:00 PM 3.88 38.984 0.432 8.04 2.37 13.34
12/5/2022 7:15:00 PM 3.87 38.966 0.432 8.05 2.33 13.38
12/5/2022 7:30:00 PM 3.9 39.02 0.432 8.06 2.24 13.41
12/5/2022 7:45:00 PM 3.92 39.056 0.433 8.07 2.14 13.41
12/5/2022 8:00:00 PM 3.93 39.074 0.433 8.08 2.21 13.45
12/5/2022 8:15:00 PM 3.96 39.128 0.433 8.09 2.13 13.46
12/5/2022 8:30:00 PM 3.99 39.182 0.434 8.1 2.23 13.48
12/5/2022 8:45:00 PM 4.01 39.218 0.434 8.11 2.35 13.49
12/5/2022 9:00:00 PM 4.02 39.236 0.434 8.13 2.14 13.52
12/5/2022 9:15:00 PM 4.03 39.254 0.435 8.14 2.11 13.5
12/5/2022 9:30:00 PM 4.06 39.308 0.435 8.14 2.07 13.52
12/5/2022 9:45:00 PM 4.06 39.308 0.435 8.14 2.24 13.52
12/5/2022 10:00:00 PM 4.09 39.362 0.435 8.15 2.16 13.51
12/5/2022 10:15:00 PM 4.07 39.326 0.435 8.14 2.21 13.51
12/5/2022 10:30:00 PM 4.09 39.362 0.435 8.15 1.98 13.53
12/5/2022 10:45:00 PM 4.1 39.38 0.435 8.15 1.88 13.52
12/5/2022 11:00:00 PM 4.09 39.362 0.435 8.15 2.05 13.52
12/5/2022 11:15:00 PM 4.08 39.344 0.434 8.14 2.22 13.5
12/5/2022 11:30:00 PM 4.08 39.344 0.434 8.15 1.92 13.48
12/5/2022 11:45:00 PM 4.08 39.344 0.434 8.14 1.87 13.47
12/6/2022 12:00:00 AM 4.09 39.362 0.434 8.15 1.98 13.44
12/6/2022 12:15:00 AM 4.08 39.344 0.433 8.14 1.73 13.42
12/6/2022 12:30:00 AM 4.06 39.308 0.433 8.13 2.28 13.39
12/6/2022 12:45:00 AM 4.03 39.254 0.433 8.11 1.75 13.37
12/6/2022 1:00:00 AM 4.03 39.254 0.432 8.1 1.66 13.35
12/6/2022 1:15:00 AM 4.01 39.218 0.432 8.09 1.65 13.32
12/6/2022 1:30:00 AM 3.99 39.182 0.432 8.09 1.79 13.28
12/6/2022 1:45:00 AM 3.96 39.128 0.432 8.1 1.72 13.27
12/6/2022 2:00:00 AM 3.93 39.074 0.432 8.08 1.59 13.25
12/6/2022 2:15:00 AM 3.91 39.038 0.431 8.07 1.74 13.21
12/6/2022 2:30:00 AM 3.87 38.966 0.431 8.07 1.95 13.2
12/6/2022 2:45:00 AM 3.89 39.002 0.431 8.06 1.75 13.16
12/6/2022 3:00:00 AM 3.86 38.948 0.431 8.05 1.69 13.14
12/6/2022 3:15:00 AM 3.86 38.948 0.431 8.05 1.7 13.12
12/6/2022 3:30:00 AM 3.86 38.948 0.431 8.06 1.62 13.09
12/6/2022 3:45:00 AM 3.86 38.948 0.431 8.04 1.5 13.07
12/6/2022 4:00:00 AM 3.86 38.948 0.431 8.02 1.49 13.05
12/6/2022 4:15:00 AM 3.86 38.948 0.431 8.01 1.41 13.03
12/6/2022 4:30:00 AM 3.85 38.93 0.431 8.04 1.6 13
12/6/2022 4:45:00 AM 3.85 38.93 0.431 8.02 1.59 13
12/6/2022 5:00:00 AM 3.85 38.93 0.431 8.02 1.55 12.98
12/6/2022 5:15:00 AM 3.84 38.912 0.431 8.01 1.41 12.95
12/6/2022 5:30:00 AM 3.84 38.912 0.43 8.01 1.42 12.94
12/6/2022 5:45:00 AM 3.84 38.912 0.43 8 1.54 12.93
12/6/2022 6:00:00 AM 3.83 38.894 0.43 8.02 1.24 12.91
12/6/2022 6:15:00 AM 3.82 38.876 0.43 8 1.26 12.9
12/6/2022 6:30:00 AM 3.81 38.858 0.43 8.01 1.44 12.88
12/6/2022 6:45:00 AM 3.8 38.84 0.43 7.99 1.28 12.87
12/6/2022 7:00:00 AM 3.79 38.822 0.43 8 1.56 12.87
12/6/2022 7:15:00 AM 3.78 38.804 0.43 8.01 1.34 12.86
12/6/2022 7:30:00 AM 3.77 38.786 0.43 8 1.4 12.85
12/6/2022 7:45:00 AM 3.76 38.768 0.43 7.99 1.47 12.85
12/6/2022 8:00:00 AM 3.75 38.75 0.43 8 1.35 12.84
12/6/2022 8:15:00 AM 3.74 38.732 0.43 8 1.25 12.85
12/6/2022 8:30:00 AM 3.73 38.714 0.43 7.97 1.66 12.85
12/6/2022 8:45:00 AM 3.72 38.696 0.43 7.98 1.16 12.86
12/6/2022 9:00:00 AM 3.71 38.678 0.43 8 1.28 12.86
12/6/2022 9:15:00 AM 3.7 38.66 0.429 7.98 1.43 12.87
12/6/2022 9:30:00 AM 3.7 38.66 0.429 7.96 1.3 12.86
12/6/2022 9:45:00 AM 3.69 38.642 0.429 7.98 1.14 12.85
12/6/2022 10:00:00 AM 3.69 38.642 0.429 8.02 1.24 12.87
12/6/2022 10:15:00 AM 3.69 38.642 0.429 7.95 1.19 12.88
12/6/2022 10:30:00 AM 3.69 38.642 0.428 7.95 1.24 12.89
12/6/2022 10:45:00 AM 3.69 38.642 0.428 7.95 1.33 12.89
12/6/2022 11:00:00 AM 3.7 38.66 0.428 7.97 1.53 12.9
12/6/2022 11:15:00 AM 3.71 38.678 0.428 7.99 1.36 12.9
12/6/2022 11:30:00 AM 3.72 38.696 0.427 7.95 1.34 12.89
12/6/2022 11:45:00 AM 3.73 38.714 0.427 7.94 1.37 12.9
12/6/2022 12:00:00 PM 3.73 38.714 0.427 7.93 1.57 12.89
12/6/2022 12:15:00 PM 3.75 38.75 0.427 7.96 1.33 12.89
12/6/2022 12:30:00 PM 3.77 38.786 0.427 7.97 1.4 12.9
12/6/2022 12:45:00 PM 3.8 38.84 0.427 7.94 1.31 12.9
12/6/2022 1:00:00 PM 3.82 38.876 0.428 7.94 1.31 12.89
12/6/2022 1:15:00 PM 3.84 38.912 0.428 7.93 1.34 12.87
12/6/2022 1:30:00 PM 3.86 38.948 0.428 7.96 1.22 12.85
12/6/2022 1:45:00 PM 3.87 38.966 0.428 7.93 1.27 12.84
12/6/2022 2:00:00 PM 3.9 39.02 0.428 7.94 1.15 12.84
12/6/2022 2:15:00 PM 3.93 39.074 0.428 7.94 1.37 12.84
12/6/2022 2:30:00 PM 3.96 39.128 0.428 7.93 1.39 12.84
12/6/2022 2:45:00 PM 3.99 39.182 0.428 7.96 1.26 12.84
12/6/2022 3:00:00 PM 4.02 39.236 0.429 7.95 1.57 12.82
12/6/2022 3:15:00 PM 4.05 39.29 0.429 7.94 1.57 12.8
12/6/2022 3:30:00 PM 4.08 39.344 0.43 7.94 1.31 12.79
12/6/2022 3:45:00 PM 4.1 39.38 0.43 7.95 1.55 12.78
12/6/2022 4:00:00 PM 4.13 39.434 0.431 7.91 1.32 12.77
12/6/2022 4:15:00 PM 4.16 39.488 0.432 7.93 1.41 12.76
12/6/2022 4:30:00 PM 4.19 39.542 0.433 7.9 1.34 12.75
12/6/2022 4:45:00 PM 4.22 39.596 0.434 7.89 1.24 12.73
12/6/2022 5:00:00 PM 4.26 39.668 0.435 7.92 1.26 12.74
12/6/2022 5:15:00 PM 4.29 39.722 0.436 7.91 1.36 12.74
12/6/2022 5:30:00 PM 4.33 39.794 0.438 7.89 1.3 12.75
12/6/2022 5:45:00 PM 4.37 39.866 0.44 7.93 1.35 12.74
12/6/2022 6:00:00 PM 4.4 39.92 0.441 7.94 1.29 12.74
12/6/2022 6:15:00 PM 4.44 39.992 0.444 7.93 1.19 12.75
12/6/2022 6:30:00 PM 4.48 40.064 0.445 7.93 1.26 12.76
12/6/2022 6:45:00 PM 4.52 40.136 0.447 7.93 1.44 12.76
12/6/2022 7:00:00 PM 4.57 40.226 0.449 7.97 1.48 12.76
12/6/2022 7:15:00 PM 4.6 40.28 0.449 7.95 1.31 12.77
12/6/2022 7:30:00 PM 4.64 40.352 0.451 7.98 1.31 12.76
12/6/2022 7:45:00 PM 4.68 40.424 0.452 7.95 1.25 12.77
12/6/2022 8:00:00 PM 4.72 40.496 0.453 7.98 1.16 12.76
12/6/2022 8:15:00 PM 4.76 40.568 0.454 7.99 1.32 12.76
12/6/2022 8:30:00 PM 4.81 40.658 0.455 7.99 1.23 12.76
12/6/2022 8:45:00 PM 4.84 40.712 0.456 8.01 1.13 12.75
12/6/2022 9:00:00 PM 4.88 40.784 0.457 8.03 1.05 12.73
12/6/2022 9:15:00 PM 4.91 40.838 0.457 8.04 1.17 12.73
12/6/2022 9:30:00 PM 4.94 40.892 0.458 8.03 1.5 12.71
12/6/2022 9:45:00 PM 4.97 40.946 0.458 8 1.13 12.7
12/6/2022 10:00:00 PM 5 41 0.458 8.01 1.5 12.68
12/6/2022 10:15:00 PM 5.03 41.054 0.459 8.05 1.17 12.66
12/6/2022 10:30:00 PM 5.06 41.108 0.459 8.03 1.31 12.65
12/6/2022 10:45:00 PM 5.09 41.162 0.459 8.01 1.26 12.62
12/6/2022 11:00:00 PM 5.11 41.198 0.459 8.01 1.18 12.6
12/6/2022 11:15:00 PM 5.14 41.252 0.459 8 1.78 12.57
12/6/2022 11:30:00 PM 5.17 41.306 0.459 8.02 1.37 12.55
12/6/2022 11:45:00 PM 5.19 41.342 0.459 8 1.49 12.52
12/7/2022 12:00:00 AM 5.21 41.378 0.458 7.96 1.91 12.5
12/7/2022 12:15:00 AM 5.23 41.414 0.458 7.97 1.56 12.48
12/7/2022 12:30:00 AM 5.25 41.45 0.456 7.97 1.33 12.45
12/7/2022 12:45:00 AM 5.27 41.486 0.455 7.94 1.43 12.42
12/7/2022 1:00:00 AM 5.29 41.522 0.454 7.94 1.51 12.4
12/7/2022 1:15:00 AM 5.3 41.54 0.453 7.9 1.53 12.38
12/7/2022 1:30:00 AM 5.32 41.576 0.453 7.92 1.4 12.37
12/7/2022 1:45:00 AM 5.33 41.594 0.452 7.89 1.44 12.36
12/7/2022 2:00:00 AM 5.35 41.63 0.451 7.91 1.4 12.34
12/7/2022 2:15:00 AM 5.37 41.666 0.45 7.9 1.52 12.33
12/7/2022 2:30:00 AM 5.39 41.702 0.449 7.87 1.56 12.32
12/7/2022 2:45:00 AM 5.4 41.72 0.448 7.91 1.64 12.31
12/7/2022 3:00:00 AM 5.41 41.738 0.448 7.9 1.66 12.29
12/7/2022 3:15:00 AM 5.43 41.774 0.447 7.88 1.64 12.28
12/7/2022 3:30:00 AM 5.45 41.81 0.446 7.89 1.79 12.27
12/7/2022 3:45:00 AM 5.46 41.828 0.445 7.91 1.77 12.26
12/7/2022 4:00:00 AM 5.47 41.846 0.447 7.92 1.7 12.25
12/7/2022 4:15:00 AM 5.49 41.882 0.444 7.9 1.84 12.24
12/7/2022 4:30:00 AM 5.5 41.9 0.444 7.88 1.65 12.22
12/7/2022 4:45:00 AM 5.52 41.936 0.442 7.89 1.81 12.21
12/7/2022 5:00:00 AM 5.53 41.954 0.441 7.88 1.48 12.2
12/7/2022 5:15:00 AM 5.55 41.99 0.44 7.88 2.3 12.19
12/7/2022 5:30:00 AM 5.56 42.008 0.439 7.87 1.75 12.18
12/7/2022 5:45:00 AM 5.58 42.044 0.437 7.9 1.95 12.17
12/7/2022 6:00:00 AM 5.59 42.062 0.436 7.91 1.85 12.16
12/7/2022 6:15:00 AM 5.61 42.098 0.434 7.89 2.43 12.15
12/7/2022 6:30:00 AM 5.62 42.116 0.433 7.91 1.72 12.14
12/7/2022 6:45:00 AM 5.64 42.152 0.432 7.88 2.42 12.14
12/7/2022 7:00:00 AM 5.66 42.188 0.431 7.9 2.37 12.13
12/7/2022 7:15:00 AM 5.68 42.224 0.43 7.91 2.37 12.12
12/7/2022 7:30:00 AM 5.7 42.26 0.43 7.87 2.13 12.11
12/7/2022 7:45:00 AM 5.72 42.296 0.429 7.87 2.55 12.1
12/7/2022 8:00:00 AM 5.75 42.35 0.429 7.9 2.82 12.09
12/7/2022 8:15:00 AM 5.77 42.386 0.43 7.9 2.41 12.09
12/7/2022 8:30:00 AM 5.8 42.44 0.43 7.86 2.05 12.1
12/7/2022 8:45:00 AM 5.83 42.494 0.431 7.85 2.32 12.11
12/7/2022 9:00:00 AM 5.86 42.548 0.431 7.84 2.37 12.12
12/7/2022 9:15:00 AM 5.89 42.602 0.432 7.87 2.3 12.1
12/7/2022 9:30:00 AM 5.92 42.656 0.433 7.86 2.61 12.08
12/7/2022 9:45:00 AM 5.96 42.728 0.433 7.84 2.31 12.09
12/7/2022 10:00:00 AM 6 42.8 0.434 7.89 1.97 12.12
12/7/2022 10:15:00 AM 6.05 42.89 0.434 7.92 2.51 12.11
12/7/2022 10:30:00 AM 6.08 42.944 0.434 7.86 2.58 12.09
12/7/2022 10:45:00 AM 6.11 42.998 0.434 7.87 4.22 12.05
12/7/2022 11:00:00 AM 6.15 43.07 0.434 7.89 2.71 12.04
12/7/2022 11:15:00 AM 6.18 43.124 0.434 7.86 3.46 12
12/7/2022 11:30:00 AM 6.21 43.178 0.433 7.88 2.46 12.07
12/7/2022 11:45:00 AM 6.24 43.232 0.432 7.85 2.44 12.08
12/7/2022 12:00:00 PM 6.27 43.286 0.432 7.87 2.83 12.05
12/7/2022 12:15:00 PM 6.31 43.358 0.43 7.86 2.54 12.02
12/7/2022 12:30:00 PM 6.33 43.394 0.428 7.88 2.94 12.04
12/7/2022 12:45:00 PM 6.36 43.448 0.426 7.89 2.55 12.05
12/7/2022 1:00:00 PM 6.38 43.484 0.425 7.89 2.84 12.06
12/7/2022 1:15:00 PM 6.42 43.556 0.423 7.91 2.48 12.08
12/7/2022 1:30:00 PM 6.45 43.61 0.422 7.91 2.77 12.07
12/7/2022 1:45:00 PM 6.48 43.664 0.421 7.91 2.6 12.08
12/7/2022 2:00:00 PM 6.51 43.718 0.419 7.92 2.82 12.08
12/7/2022 2:15:00 PM 6.55 43.79 0.418 7.92 2.46 12.09
12/7/2022 2:30:00 PM 6.58 43.844 0.417 7.95 2.61 12.09
12/7/2022 2:45:00 PM 6.61 43.898 0.415 7.94 3.04 12.11
12/7/2022 3:00:00 PM 6.64 43.952 0.414 7.93 2.48 12.09
12/7/2022 3:15:00 PM 6.67 44.006 0.414 7.94 2.76 12.11
12/7/2022 3:30:00 PM 6.71 44.078 0.411 7.98 2.89 12.11
12/7/2022 3:45:00 PM 6.74 44.132 0.409 7.97 2.84 12.1
12/7/2022 4:00:00 PM 6.77 44.186 0.409 7.99 2.68 12.1
12/7/2022 4:15:00 PM 6.8 44.24 0.408 7.98 2.89 12.08
12/7/2022 4:30:00 PM 6.82 44.276 0.406 7.98 3.01 12.07
12/7/2022 4:45:00 PM 6.85 44.33 0.406 8 2.88 12.07
12/7/2022 5:00:00 PM 6.87 44.366 0.406 8 2.89 12.08
12/7/2022 5:15:00 PM 6.9 44.42 0.403 7.99 2.97 12.08
12/7/2022 5:30:00 PM 6.92 44.456 0.402 8 2.97 12.08
12/7/2022 5:45:00 PM 6.95 44.51 0.404 8 3.26 12.06
12/7/2022 6:00:00 PM 6.97 44.546 0.402 8.02 2.95 12.08
12/7/2022 6:15:00 PM 6.99 44.582 0.404 8 3.05 12.07
12/7/2022 6:30:00 PM 7.02 44.636 0.399 7.98 3.17 12.08
12/7/2022 6:45:00 PM 7.05 44.69 0.399 8.01 3.33 12.1
12/7/2022 7:00:00 PM 7.07 44.726 0.398 7.98 2.88 12.08
12/7/2022 7:15:00 PM 7.09 44.762 0.398 7.96 3.11 12.08
12/7/2022 7:30:00 PM 7.12 44.816 0.398 7.96 3 12.07
12/7/2022 7:45:00 PM 7.14 44.852 0.398 7.96 3.25 12.07
12/7/2022 8:00:00 PM 7.17 44.906 0.397 7.97 3.27 12.05
12/7/2022 8:15:00 PM 7.19 44.942 0.398 7.97 3.2 12.03
12/7/2022 8:30:00 PM 7.21 44.978 0.398 7.98 3.18 12.03
12/7/2022 8:45:00 PM 7.23 45.014 0.398 7.95 2.57 12
12/7/2022 9:00:00 PM 7.25 45.05 0.398 7.97 2.76 11.98
12/7/2022 9:15:00 PM 7.27 45.086 0.399 7.97 3.06 11.96
12/7/2022 9:30:00 PM 7.29 45.122 0.398 7.97 3.12 11.95
12/7/2022 9:45:00 PM 7.31 45.158 0.398 7.97 3.72 11.93
12/7/2022 10:00:00 PM 7.33 45.194 0.397 7.95 2.55 11.9
12/7/2022 10:15:00 PM 7.34 45.212 0.397 7.95 2.41 11.87
12/7/2022 10:30:00 PM 7.36 45.248 0.397 7.93 2.61 11.84
12/7/2022 10:45:00 PM 7.37 45.266 0.396 7.93 2.8 11.81
12/7/2022 11:00:00 PM 7.39 45.302 0.396 7.93 2.49 11.79
12/7/2022 11:15:00 PM 7.4 45.32 0.396 7.93 2.79 11.75
12/7/2022 11:30:00 PM 7.42 45.356 0.395 7.92 3.2 11.73
12/7/2022 11:45:00 PM 7.43 45.374 0.396 7.91 2.88 11.7
12/8/2022 12:00:00 AM 7.44 45.392 0.395 7.9 2.55 11.68
12/8/2022 12:15:00 AM 7.45 45.41 0.395 7.9 2.69 11.65
12/8/2022 12:30:00 AM 7.46 45.428 0.395 7.9 2.73 11.63
12/8/2022 12:45:00 AM 7.47 45.446 0.396 7.9 3.7 11.61
12/8/2022 1:00:00 AM 7.48 45.464 0.395 7.89 3.34 11.59
12/8/2022 1:15:00 AM 7.49 45.482 0.395 7.89 3.46 11.56
12/8/2022 1:30:00 AM 7.5 45.5 0.395 7.88 2.95 11.54
12/8/2022 1:45:00 AM 7.51 45.518 0.396 7.9 2.99 11.52
12/8/2022 2:00:00 AM 7.51 45.518 0.396 7.9 3.13 11.5
12/8/2022 2:15:00 AM 7.52 45.536 0.396 7.89 2.82 11.48
12/8/2022 2:30:00 AM 7.53 45.554 0.396 7.87 3.04 11.46
12/8/2022 2:45:00 AM 7.54 45.572 0.396 7.87 3.33 11.44
12/8/2022 3:00:00 AM 7.54 45.572 0.396 7.88 3.25 11.43
12/8/2022 3:15:00 AM 7.55 45.59 0.397 7.86 3.02 11.41
12/8/2022 3:30:00 AM 7.56 45.608 0.397 7.87 2.64 11.39
12/8/2022 3:45:00 AM 7.55 45.59 0.397 7.86 2.68 11.38
12/8/2022 4:00:00 AM 7.55 45.59 0.397 7.86 3.39 11.37
12/8/2022 4:15:00 AM 7.55 45.59 0.397 7.85 3.47 11.36
12/8/2022 4:30:00 AM 7.54 45.572 0.397 7.84 3.29 11.35
12/8/2022 4:45:00 AM 7.54 45.572 0.398 7.84 3.35 11.33
12/8/2022 5:00:00 AM 7.54 45.572 0.398 7.84 3.66 11.33
12/8/2022 5:15:00 AM 7.54 45.572 0.398 7.84 3.63 11.31
12/8/2022 5:30:00 AM 7.54 45.572 0.398 7.84 3.45 11.3
12/8/2022 5:45:00 AM 7.54 45.572 0.399 7.85 3.43 11.29
12/8/2022 6:00:00 AM 7.54 45.572 0.399 7.84 3.25 11.28
12/8/2022 6:15:00 AM 7.54 45.572 0.4 7.83 3.42 11.29
12/8/2022 6:30:00 AM 7.54 45.572 0.401 7.83 3.34 11.27
12/8/2022 6:45:00 AM 7.54 45.572 0.402 7.83 3.57 11.27
12/8/2022 7:00:00 AM 7.54 45.572 0.403 7.83 3.37 11.28
12/8/2022 7:15:00 AM 7.54 45.572 0.403 7.84 3.12 11.26
12/8/2022 7:30:00 AM 7.54 45.572 0.403 7.83 3.23 11.26
12/8/2022 7:45:00 AM 7.56 45.608 0.406 7.83 3.46 11.28
12/8/2022 8:00:00 AM 7.56 45.608 0.407 7.84 2.98 11.29
12/8/2022 8:15:00 AM 7.57 45.626 0.408 7.84 2.89 11.29
12/8/2022 8:30:00 AM 7.57 45.626 0.409 7.86 3.14 11.31
12/8/2022 8:45:00 AM 7.58 45.644 0.41 7.86 3.5 11.32
12/8/2022 9:00:00 AM 7.6 45.68 0.411 7.85 3.34 11.34
12/8/2022 9:15:00 AM 7.62 45.716 0.412 7.87 3.36 11.37
12/8/2022 9:30:00 AM 7.64 45.752 0.413 7.86 2.89 11.4
12/8/2022 9:45:00 AM 7.66 45.788 0.414 7.88 2.82 11.4
12/8/2022 10:00:00 AM 7.69 45.842 0.414 7.87 3.22 11.41
12/8/2022 10:15:00 AM 7.72 45.896 0.416 7.87 4.28 11.4
12/8/2022 10:30:00 AM 7.74 45.932 0.417 7.87 3.78 11.41
12/8/2022 10:45:00 AM 7.77 45.986 0.418 7.88 3.83 11.45
12/8/2022 11:00:00 AM 7.79 46.022 0.418 7.87 3 11.49
12/8/2022 11:15:00 AM 7.82 46.076 0.419 7.87 2.96 11.52
12/8/2022 11:30:00 AM 7.86 46.148 0.42 7.88 3.14 11.48
12/8/2022 11:45:00 AM 7.89 46.202 0.42 7.86 3.26 11.38
12/8/2022 12:00:00 PM 7.88 46.184 0.421 7.88 4.16 11.39
12/8/2022 12:15:00 PM 7.89 46.202 0.422 7.87 2.95 11.41
12/8/2022 12:30:00 PM 7.92 46.256 0.422 7.87 3.18 11.32
12/8/2022 12:45:00 PM 7.91 46.238 0.424 7.88 2.76 11.43
12/8/2022 1:00:00 PM 7.92 46.256 0.424 7.89 2.82 11.43
12/8/2022 1:15:00 PM 7.94 46.292 0.425 7.88 2.8 11.45
12/8/2022 1:30:00 PM 7.95 46.31 0.425 7.88 2.51 11.47
12/8/2022 1:45:00 PM 7.97 46.346 0.426 7.88 2.32 11.47
12/8/2022 2:00:00 PM 7.98 46.364 0.426 7.9 2.51 11.49
12/8/2022 2:15:00 PM 8 46.4 0.426 7.89 2.51 11.49
12/8/2022 2:30:00 PM 8.01 46.418 0.427 7.9 2.32 11.51
12/8/2022 2:45:00 PM 8.02 46.436 0.427 7.89 2.47 11.52
12/8/2022 3:00:00 PM 8.04 46.472 0.427 7.9 2.4 11.54
12/8/2022 3:15:00 PM 8.05 46.49 0.427 7.91 2.3 11.53
12/8/2022 3:30:00 PM 8.06 46.508 0.427 7.92 2.43 11.55
12/8/2022 3:45:00 PM 8.08 46.544 0.427 7.94 2.24 11.57
12/8/2022 4:00:00 PM 8.09 46.562 0.427 7.93 1.88 11.59
12/8/2022 4:15:00 PM 8.1 46.58 0.426 7.94 2.28 11.62
12/8/2022 4:30:00 PM 8.11 46.598 0.426 7.96 2.17 11.63
12/8/2022 4:45:00 PM 8.12 46.616 0.426 7.95 2.57 11.66
12/8/2022 5:00:00 PM 8.14 46.652 0.426 7.96 2.08 11.7
12/8/2022 5:15:00 PM 8.15 46.67 0.425 7.96 2.22 11.72
12/8/2022 5:30:00 PM 8.16 46.688 0.425 7.97 2.18 11.78
12/8/2022 5:45:00 PM 8.17 46.706 0.425 7.98 2.29 11.81
12/8/2022 6:00:00 PM 8.18 46.724 0.425 7.99 2.16 11.84
12/8/2022 6:15:00 PM 8.19 46.742 0.425 8 1.96 11.86
12/8/2022 6:30:00 PM 8.21 46.778 0.425 8.03 1.81 11.88
12/8/2022 6:45:00 PM 8.22 46.796 0.425 8.03 1.93 11.89
12/8/2022 7:00:00 PM 8.23 46.814 0.425 8.05 2.09 11.91
12/8/2022 7:15:00 PM 8.24 46.832 0.425 8.06 1.84 11.94
12/8/2022 7:30:00 PM 8.24 46.832 0.425 8.08 1.83 11.91
12/8/2022 7:45:00 PM 8.25 46.85 0.426 8.09 1.81 11.91
12/8/2022 8:00:00 PM 8.25 46.85 0.426 8.07 1.86 11.93
12/8/2022 8:15:00 PM 8.25 46.85 0.426 8.1 1.7 11.94
12/8/2022 8:30:00 PM 8.24 46.832 0.426 8.09 1.85 11.94
12/8/2022 8:45:00 PM 8.24 46.832 0.426 8.11 1.98 11.97
12/8/2022 9:00:00 PM 8.24 46.832 0.426 8.11 1.84 11.96
12/8/2022 9:15:00 PM 8.23 46.814 0.426 8.11 1.79 11.95
12/8/2022 9:30:00 PM 8.22 46.796 0.426 8.13 1.78 11.94
12/8/2022 9:45:00 PM 8.2 46.76 0.425 8.12 1.79 11.93
12/8/2022 10:00:00 PM 8.19 46.742 0.425 8.12 1.66 11.93
12/8/2022 10:15:00 PM 8.19 46.742 0.425 8.13 1.8 11.95
12/8/2022 10:30:00 PM 8.17 46.706 0.425 8.13 1.66 11.94
12/8/2022 10:45:00 PM 8.16 46.688 0.425 8.11 1.68 11.93
12/8/2022 11:00:00 PM 8.15 46.67 0.425 8.11 1.63 11.9
12/8/2022 11:15:00 PM 8.13 46.634 0.426 8.09 1.61 11.88
12/8/2022 11:30:00 PM 8.12 46.616 0.426 8.08 1.71 11.86
12/8/2022 11:45:00 PM 8.1 46.58 0.426 8.08 1.5 11.84
12/9/2022 12:00:00 AM 8.07 46.526 0.426 8.1 1.6 11.81
12/9/2022 12:15:00 AM 8.03 46.454 0.427 8.1 1.58 11.78
12/9/2022 12:30:00 AM 7.99 46.382 0.427 8.09 1.76 11.76
12/9/2022 12:45:00 AM 7.97 46.346 0.428 8.07 1.55 11.73
12/9/2022 1:00:00 AM 7.93 46.274 0.428 8.06 1.57 11.71
12/9/2022 1:15:00 AM 7.88 46.184 0.427 8.05 1.51 11.7
12/9/2022 1:30:00 AM 7.85 46.13 0.428 8.05 1.49 11.67
12/9/2022 1:45:00 AM 7.79 46.022 0.428 8.03 1.34 11.64
12/9/2022 2:00:00 AM 7.79 46.022 0.428 8.02 1.93 11.62
12/9/2022 2:15:00 AM 7.73 45.914 0.428 8.01 1.36 11.6
12/9/2022 2:30:00 AM 7.69 45.842 0.428 8 1.36 11.58
12/9/2022 2:45:00 AM 7.65 45.77 0.428 7.99 1.51 11.57
12/9/2022 3:00:00 AM 7.62 45.716 0.428 7.98 1.34 11.56
12/9/2022 3:15:00 AM 7.58 45.644 0.428 7.98 1.51 11.55
12/9/2022 3:30:00 AM 7.53 45.554 0.428 7.98 1.42 11.54
12/9/2022 3:45:00 AM 7.5 45.5 0.428 7.98 1.54 11.51
12/9/2022 4:00:00 AM 7.46 45.428 0.428 7.97 1.47 11.53
12/9/2022 4:15:00 AM 7.41 45.338 0.428 7.96 1.32 11.52
12/9/2022 4:30:00 AM 7.37 45.266 0.428 7.95 1.57 11.5
12/9/2022 4:45:00 AM 7.34 45.212 0.428 7.95 1.23 11.5
12/9/2022 5:00:00 AM 7.3 45.14 0.428 7.94 1.43 11.48
12/9/2022 5:15:00 AM 7.26 45.068 0.428 7.95 1.23 11.49
12/9/2022 5:30:00 AM 7.21 44.978 0.428 7.95 1.14 11.47
12/9/2022 5:45:00 AM 7.17 44.906 0.428 7.96 1.34 11.47
12/9/2022 6:00:00 AM 7.13 44.834 0.428 7.95 1.27 11.45
12/9/2022 6:15:00 AM 7.09 44.762 0.428 7.94 1.02 11.46
12/9/2022 6:30:00 AM 7.03 44.654 0.428 7.94 1.11 11.46
12/9/2022 6:45:00 AM 6.98 44.564 0.428 7.92 1.04 11.45
12/9/2022 7:00:00 AM 6.95 44.51 0.428 7.95 1.01 11.46
12/9/2022 7:15:00 AM 6.9 44.42 0.428 7.95 1.05 11.46
12/9/2022 7:30:00 AM 6.85 44.33 0.428 7.93 0.99 11.46
12/9/2022 7:45:00 AM 6.8 44.24 0.428 7.92 0.97 11.47
12/9/2022 8:00:00 AM 6.76 44.168 0.427 7.92 1.06 11.48
12/9/2022 8:15:00 AM 6.71 44.078 0.427 7.92 1.06 11.5
12/9/2022 8:30:00 AM 6.68 44.024 0.427 7.92 1.05 11.51
12/9/2022 8:45:00 AM 6.66 43.988 0.427 7.91 1.06 11.53
12/9/2022 9:00:00 AM 6.68 44.024 0.427 7.96 1.25 11.54
12/9/2022 9:15:00 AM 6.64 43.952 0.427 7.93 1.37 11.56
12/9/2022 9:30:00 AM 6.66 43.988 0.427 7.93 1.21 11.59
12/9/2022 9:45:00 AM 6.7 44.06 0.428 7.91 1.99 11.56
12/9/2022 10:00:00 AM 6.75 44.15 0.428 7.93 2.89 11.58
12/9/2022 10:15:00 AM 6.82 44.276 0.428 7.93 1.92 11.52
12/9/2022 10:30:00 AM 6.85 44.33 0.429 7.92 1.64 11.62
12/9/2022 10:45:00 AM 6.87 44.366 0.429 7.93 1.17 11.58
12/9/2022 11:00:00 AM 6.98 44.564 0.429 7.95 2.97 11.56
12/9/2022 11:15:00 AM 6.91 44.438 0.43 7.93 1.48 11.64

These are provisional data and have not been subject to a quality assurance process, but rather are the raw data reported by the instrument.
H: value is above sensor operating range
L: value is below sensor operating range
Offline: station is not reporting data
NC: parameter is not collected at site

Data Availability & Limitations

Uncertainty and potential for error can be associated with environmental monitoring data. Provisional data have not been subject to a quality assurance process, but rather are the raw data reported by the instrument. Data users are cautioned to consider carefully the provisional nature of the information before using it for decisions that concern personal or public safety or the conduct of business that involves substantial monetary or operational consequences.

Approved data are currently available by request by emailing: [email protected]. Approved data have been subject to a quality assurance process to correct for equipment or fouling drift. Data recorded during equipment malfunctions have been removed.

View Historical Stations that have been discontinued.